<?xml version="1.0" encoding="UTF-8" standalone="no" ?>
<gpx xmlns="http://www.topografix.com/GPX/1/1" xmlns:xsi="http://www.w3.org/2001/XMLSchema-instance" xsi:schemaLocation="http://www.topografix.com/GPX/1/1 http://www.topografix.com/GPX/1/1/gpx.xsd" version="1.1" creator="VisuGPX - https://www.visugpx.com">
  <metadata>
    <name>Saint Martial - montagne du Liron</name>
    <desc><![CDATA[2017-04 - Saint Martial - col de l'Asclier - montagne du Liron

[b]album[/b] : [url]https://goo.gl/photos/xL1U9ED41rQNVmw68[/url]
[img]https://1.bp.blogspot.com/-EIEwMWE0o_A/WOjlGdZX-2I/AAAAAAAASGw/xcqgIg37YGk3OtEXWSUZg-XRkziBpR4fgCLcB/s1600/2017-04_Saint-Martial_montagne-du-Liron_i.JPG[/img]
[b]Idées de randonnées dans la même région[/b]
Parcours : [url]https://www.visugpx.com/membres/24856/montagne/cevennes/[/url]
Photos : [url]https://jcvertygo.blogspot.com/p/cevennes-meridionales.html[/url]]]></desc>
  </metadata>
  <trk>
    <name><![CDATA[Saint Martial - montagne du Liron_1]]></name>
    <trkseg>
      <trkpt lat="44.03362" lon="3.73528">
        <ele>454.3</ele>
        <time>2017-04-07T11:33:01Z</time>
      </trkpt>
      <trkpt lat="44.03366" lon="3.73528">
        <ele>454.3</ele>
        <time>2017-04-07T11:33:06Z</time>
      </trkpt>
      <trkpt lat="44.0337" lon="3.7353">
        <ele>454.3</ele>
        <time>2017-04-07T11:33:11Z</time>
      </trkpt>
      <trkpt lat="44.03376" lon="3.73531">
        <ele>454.69385740969</ele>
        <time>2017-04-07T11:33:16Z</time>
      </trkpt>
      <trkpt lat="44.03382" lon="3.73534">
        <ele>454.69385740969</ele>
        <time>2017-04-07T11:33:21Z</time>
      </trkpt>
      <trkpt lat="44.03385" lon="3.73535">
        <ele>457.22070196417</ele>
        <time>2017-04-07T11:33:26Z</time>
      </trkpt>
      <trkpt lat="44.03385" lon="3.73535">
        <ele>457.22070196417</ele>
        <time>2017-04-07T11:33:31Z</time>
      </trkpt>
      <trkpt lat="44.0339" lon="3.73543">
        <ele>457.22070196417</ele>
        <time>2017-04-07T11:34:02Z</time>
      </trkpt>
      <trkpt lat="44.03411" lon="3.73557">
        <ele>459.66463450736</ele>
        <time>2017-04-07T11:34:21Z</time>
      </trkpt>
      <trkpt lat="44.03429" lon="3.73568">
        <ele>462.09641507247</ele>
        <time>2017-04-07T11:34:39Z</time>
      </trkpt>
      <trkpt lat="44.03431" lon="3.73568">
        <ele>462.09641507247</ele>
        <time>2017-04-07T11:34:41Z</time>
      </trkpt>
      <trkpt lat="44.0346" lon="3.73597">
        <ele>464.74654094107</ele>
        <time>2017-04-07T11:35:17Z</time>
      </trkpt>
      <trkpt lat="44.03476" lon="3.73623">
        <ele>467.73732684349</ele>
        <time>2017-04-07T11:35:42Z</time>
      </trkpt>
      <trkpt lat="44.03491" lon="3.73645">
        <ele>471.00722961926</ele>
        <time>2017-04-07T11:36:02Z</time>
      </trkpt>
      <trkpt lat="44.03496" lon="3.73643">
        <ele>471.00722961926</ele>
        <time>2017-04-07T11:36:03Z</time>
      </trkpt>
      <trkpt lat="44.03511" lon="3.73625">
        <ele>473.56511036824</ele>
        <time>2017-04-07T11:36:30Z</time>
      </trkpt>
      <trkpt lat="44.03534" lon="3.73609">
        <ele>475.6937965547</ele>
        <time>2017-04-07T11:36:42Z</time>
      </trkpt>
      <trkpt lat="44.03538" lon="3.73607">
        <ele>475.6937965547</ele>
        <time>2017-04-07T11:36:46Z</time>
      </trkpt>
      <trkpt lat="44.03542" lon="3.73607">
        <ele>475.6937965547</ele>
        <time>2017-04-07T11:36:51Z</time>
      </trkpt>
      <trkpt lat="44.03549" lon="3.73605">
        <ele>477.64179343387</ele>
        <time>2017-04-07T11:36:56Z</time>
      </trkpt>
      <trkpt lat="44.03554" lon="3.73603">
        <ele>477.64179343387</ele>
        <time>2017-04-07T11:37:01Z</time>
      </trkpt>
      <trkpt lat="44.03561" lon="3.73601">
        <ele>479.36284087929</ele>
        <time>2017-04-07T11:37:06Z</time>
      </trkpt>
      <trkpt lat="44.03567" lon="3.73596">
        <ele>479.36284087929</ele>
        <time>2017-04-07T11:37:11Z</time>
      </trkpt>
      <trkpt lat="44.03572" lon="3.73592">
        <ele>480.64675173112</ele>
        <time>2017-04-07T11:37:16Z</time>
      </trkpt>
      <trkpt lat="44.03576" lon="3.73585">
        <ele>480.64675173112</ele>
        <time>2017-04-07T11:37:21Z</time>
      </trkpt>
      <trkpt lat="44.03576" lon="3.73575">
        <ele>481.41263490302</ele>
        <time>2017-04-07T11:37:26Z</time>
      </trkpt>
      <trkpt lat="44.03574" lon="3.73564">
        <ele>481.41263490302</ele>
        <time>2017-04-07T11:37:31Z</time>
      </trkpt>
      <trkpt lat="44.03573" lon="3.73555">
        <ele>481.73044210252</ele>
        <time>2017-04-07T11:37:36Z</time>
      </trkpt>
      <trkpt lat="44.03567" lon="3.73551">
        <ele>481.73044210252</ele>
        <time>2017-04-07T11:37:41Z</time>
      </trkpt>
      <trkpt lat="44.0356" lon="3.73547">
        <ele>481.65478056959</ele>
        <time>2017-04-07T11:37:46Z</time>
      </trkpt>
      <trkpt lat="44.03556" lon="3.73547">
        <ele>481.65478056959</ele>
        <time>2017-04-07T11:37:51Z</time>
      </trkpt>
      <trkpt lat="44.03549" lon="3.73552">
        <ele>481.35420394325</ele>
        <time>2017-04-07T11:37:56Z</time>
      </trkpt>
      <trkpt lat="44.03543" lon="3.73556">
        <ele>481.35420394325</ele>
        <time>2017-04-07T11:38:01Z</time>
      </trkpt>
      <trkpt lat="44.03534" lon="3.73564">
        <ele>480.81540375058</ele>
        <time>2017-04-07T11:38:06Z</time>
      </trkpt>
      <trkpt lat="44.03522" lon="3.73585">
        <ele>480.07326373454</ele>
        <time>2017-04-07T11:38:26Z</time>
      </trkpt>
      <trkpt lat="44.03518" lon="3.73591">
        <ele>480.07326373454</ele>
        <time>2017-04-07T11:38:28Z</time>
      </trkpt>
      <trkpt lat="44.03513" lon="3.73596">
        <ele>479.53803657734</ele>
        <time>2017-04-07T11:38:36Z</time>
      </trkpt>
      <trkpt lat="44.03513" lon="3.73596">
        <ele>479.53803657734</ele>
        <time>2017-04-07T11:38:45Z</time>
      </trkpt>
      <trkpt lat="44.03509" lon="3.73593">
        <ele>479.53803657734</ele>
        <time>2017-04-07T11:39:01Z</time>
      </trkpt>
      <trkpt lat="44.03502" lon="3.73576">
        <ele>479.29578798015</ele>
        <time>2017-04-07T11:39:18Z</time>
      </trkpt>
      <trkpt lat="44.0351" lon="3.73551">
        <ele>479.16856146505</ele>
        <time>2017-04-07T11:39:26Z</time>
      </trkpt>
      <trkpt lat="44.03518" lon="3.73526">
        <ele>479.07398047729</ele>
        <time>2017-04-07T11:39:44Z</time>
      </trkpt>
      <trkpt lat="44.03517" lon="3.73531">
        <ele>479.07398047729</ele>
        <time>2017-04-07T11:39:51Z</time>
      </trkpt>
      <trkpt lat="44.03522" lon="3.73543">
        <ele>478.99799586778</ele>
        <time>2017-04-07T11:40:08Z</time>
      </trkpt>
      <trkpt lat="44.03528" lon="3.73535">
        <ele>478.99799586778</ele>
        <time>2017-04-07T11:40:08Z</time>
      </trkpt>
      <trkpt lat="44.03536" lon="3.7352">
        <ele>479.04484785339</ele>
        <time>2017-04-07T11:40:19Z</time>
      </trkpt>
      <trkpt lat="44.0354" lon="3.73496">
        <ele>479.21720534759</ele>
        <time>2017-04-07T11:40:36Z</time>
      </trkpt>
      <trkpt lat="44.03542" lon="3.73474">
        <ele>479.40151369024</ele>
        <time>2017-04-07T11:40:51Z</time>
      </trkpt>
      <trkpt lat="44.03551" lon="3.73455">
        <ele>479.61061206731</ele>
        <time>2017-04-07T11:41:09Z</time>
      </trkpt>
      <trkpt lat="44.03555" lon="3.7345">
        <ele>479.61061206731</ele>
        <time>2017-04-07T11:41:12Z</time>
      </trkpt>
      <trkpt lat="44.03567" lon="3.73443">
        <ele>479.84150662494</ele>
        <time>2017-04-07T11:41:27Z</time>
      </trkpt>
      <trkpt lat="44.03593" lon="3.73444">
        <ele>480.189504642</ele>
        <time>2017-04-07T11:41:50Z</time>
      </trkpt>
      <trkpt lat="44.03595" lon="3.73444">
        <ele>480.189504642</ele>
        <time>2017-04-07T11:41:55Z</time>
      </trkpt>
      <trkpt lat="44.03641" lon="3.73454">
        <ele>481.43834801614</ele>
        <time>2017-04-07T11:42:43Z</time>
      </trkpt>
      <trkpt lat="44.03661" lon="3.73446">
        <ele>482.84634725034</ele>
        <time>2017-04-07T11:43:01Z</time>
      </trkpt>
      <trkpt lat="44.03665" lon="3.73445">
        <ele>482.84634725034</ele>
        <time>2017-04-07T11:43:06Z</time>
      </trkpt>
      <trkpt lat="44.03677" lon="3.73435">
        <ele>484.37281466349</ele>
        <time>2017-04-07T11:43:20Z</time>
      </trkpt>
      <trkpt lat="44.03684" lon="3.73389">
        <ele>486.67460100929</ele>
        <time>2017-04-07T11:44:03Z</time>
      </trkpt>
      <trkpt lat="44.03699" lon="3.73387">
        <ele>488.97387472618</ele>
        <time>2017-04-07T11:44:18Z</time>
      </trkpt>
      <trkpt lat="44.03718" lon="3.73376">
        <ele>491.42234892251</ele>
        <time>2017-04-07T11:44:36Z</time>
      </trkpt>
      <trkpt lat="44.03737" lon="3.73413">
        <ele>495.59176985958</ele>
        <time>2017-04-07T11:45:38Z</time>
      </trkpt>
      <trkpt lat="44.03764" lon="3.73411">
        <ele>500.00601348106</ele>
        <time>2017-04-07T11:46:04Z</time>
      </trkpt>
      <trkpt lat="44.03781" lon="3.73416">
        <ele>504.40123465217</ele>
        <time>2017-04-07T11:46:31Z</time>
      </trkpt>
      <trkpt lat="44.03806" lon="3.73409">
        <ele>508.5830025424</ele>
        <time>2017-04-07T11:46:56Z</time>
      </trkpt>
      <trkpt lat="44.03864" lon="3.7342">
        <ele>513.45854361162</ele>
        <time>2017-04-07T11:47:56Z</time>
      </trkpt>
      <trkpt lat="44.03898" lon="3.73447">
        <ele>518.33859464236</ele>
        <time>2017-04-07T11:48:48Z</time>
      </trkpt>
      <trkpt lat="44.03901" lon="3.73449">
        <ele>518.33859464236</ele>
        <time>2017-04-07T11:48:48Z</time>
      </trkpt>
      <trkpt lat="44.03908" lon="3.73448">
        <ele>522.87378728307</ele>
        <time>2017-04-07T11:48:57Z</time>
      </trkpt>
      <trkpt lat="44.03938" lon="3.73466">
        <ele>526.9101015653</ele>
        <time>2017-04-07T11:49:35Z</time>
      </trkpt>
      <trkpt lat="44.0394" lon="3.73468">
        <ele>526.9101015653</ele>
        <time>2017-04-07T11:49:36Z</time>
      </trkpt>
      <trkpt lat="44.03947" lon="3.73472">
        <ele>530.4225947078</ele>
        <time>2017-04-07T11:49:41Z</time>
      </trkpt>
      <trkpt lat="44.03947" lon="3.73473">
        <ele>530.4225947078</ele>
        <time>2017-04-07T11:49:46Z</time>
      </trkpt>
      <trkpt lat="44.03954" lon="3.7348">
        <ele>533.36159565384</ele>
        <time>2017-04-07T11:50:06Z</time>
      </trkpt>
      <trkpt lat="44.03957" lon="3.73485">
        <ele>533.36159565384</ele>
        <time>2017-04-07T11:50:11Z</time>
      </trkpt>
      <trkpt lat="44.0396" lon="3.73488">
        <ele>533.36159565384</ele>
        <time>2017-04-07T11:50:16Z</time>
      </trkpt>
      <trkpt lat="44.03962" lon="3.73492">
        <ele>536.02701055974</ele>
        <time>2017-04-07T11:50:21Z</time>
      </trkpt>
      <trkpt lat="44.03965" lon="3.73495">
        <ele>536.02701055974</ele>
        <time>2017-04-07T11:50:26Z</time>
      </trkpt>
      <trkpt lat="44.03969" lon="3.73498">
        <ele>536.02701055974</ele>
        <time>2017-04-07T11:50:31Z</time>
      </trkpt>
      <trkpt lat="44.03972" lon="3.73502">
        <ele>538.01514256349</ele>
        <time>2017-04-07T11:50:36Z</time>
      </trkpt>
      <trkpt lat="44.03976" lon="3.73503">
        <ele>538.01514256349</ele>
        <time>2017-04-07T11:50:41Z</time>
      </trkpt>
      <trkpt lat="44.03977" lon="3.73503">
        <ele>538.01514256349</ele>
        <time>2017-04-07T11:50:46Z</time>
      </trkpt>
      <trkpt lat="44.03981" lon="3.73504">
        <ele>539.47726386882</ele>
        <time>2017-04-07T11:50:51Z</time>
      </trkpt>
      <trkpt lat="44.03984" lon="3.73505">
        <ele>539.47726386882</ele>
        <time>2017-04-07T11:50:56Z</time>
      </trkpt>
      <trkpt lat="44.03989" lon="3.73506">
        <ele>539.47726386882</ele>
        <time>2017-04-07T11:51:01Z</time>
      </trkpt>
      <trkpt lat="44.03996" lon="3.73505">
        <ele>540.37790678817</ele>
        <time>2017-04-07T11:51:06Z</time>
      </trkpt>
      <trkpt lat="44.04003" lon="3.73503">
        <ele>540.37790678817</ele>
        <time>2017-04-07T11:51:11Z</time>
      </trkpt>
      <trkpt lat="44.04009" lon="3.73502">
        <ele>540.71766948466</ele>
        <time>2017-04-07T11:51:16Z</time>
      </trkpt>
      <trkpt lat="44.04014" lon="3.735">
        <ele>540.71766948466</ele>
        <time>2017-04-07T11:51:21Z</time>
      </trkpt>
      <trkpt lat="44.0402" lon="3.735">
        <ele>540.6361356816</ele>
        <time>2017-04-07T11:51:26Z</time>
      </trkpt>
      <trkpt lat="44.04025" lon="3.735">
        <ele>540.6361356816</ele>
        <time>2017-04-07T11:51:31Z</time>
      </trkpt>
      <trkpt lat="44.04028" lon="3.73499">
        <ele>540.6361356816</ele>
        <time>2017-04-07T11:51:36Z</time>
      </trkpt>
      <trkpt lat="44.04072" lon="3.73506">
        <ele>539.58552119634</ele>
        <time>2017-04-07T11:52:17Z</time>
      </trkpt>
      <trkpt lat="44.04074" lon="3.73506">
        <ele>539.58552119634</ele>
        <time>2017-04-07T11:52:17Z</time>
      </trkpt>
      <trkpt lat="44.04084" lon="3.73502">
        <ele>537.96957500032</ele>
        <time>2017-04-07T11:52:36Z</time>
      </trkpt>
      <trkpt lat="44.04091" lon="3.73505">
        <ele>537.96957500032</ele>
        <time>2017-04-07T11:52:40Z</time>
      </trkpt>
      <trkpt lat="44.04119" lon="3.73501">
        <ele>535.54478426999</ele>
        <time>2017-04-07T11:53:11Z</time>
      </trkpt>
      <trkpt lat="44.04131" lon="3.73495">
        <ele>532.87371408903</ele>
        <time>2017-04-07T11:53:29Z</time>
      </trkpt>
      <trkpt lat="44.04142" lon="3.73496">
        <ele>530.21832124657</ele>
        <time>2017-04-07T11:53:29Z</time>
      </trkpt>
      <trkpt lat="44.04159" lon="3.73494">
        <ele>527.44262819338</ele>
        <time>2017-04-07T11:53:44Z</time>
      </trkpt>
      <trkpt lat="44.0416" lon="3.73494">
        <ele>527.44262819338</ele>
        <time>2017-04-07T11:53:46Z</time>
      </trkpt>
      <trkpt lat="44.04162" lon="3.73493">
        <ele>527.44262819338</ele>
        <time>2017-04-07T11:53:51Z</time>
      </trkpt>
      <trkpt lat="44.04162" lon="3.73491">
        <ele>527.44262819338</ele>
        <time>2017-04-07T11:53:56Z</time>
      </trkpt>
      <trkpt lat="44.04163" lon="3.7349">
        <ele>527.44262819338</ele>
        <time>2017-04-07T11:54:06Z</time>
      </trkpt>
      <trkpt lat="44.04165" lon="3.73494">
        <ele>524.12150932615</ele>
        <time>2017-04-07T11:54:21Z</time>
      </trkpt>
      <trkpt lat="44.04169" lon="3.73493">
        <ele>524.12150932615</ele>
        <time>2017-04-07T11:54:26Z</time>
      </trkpt>
      <trkpt lat="44.04173" lon="3.73492">
        <ele>524.12150932615</ele>
        <time>2017-04-07T11:54:36Z</time>
      </trkpt>
      <trkpt lat="44.04174" lon="3.73492">
        <ele>521.12344641941</ele>
        <time>2017-04-07T11:54:41Z</time>
      </trkpt>
      <trkpt lat="44.04175" lon="3.73491">
        <ele>521.12344641941</ele>
        <time>2017-04-07T11:54:51Z</time>
      </trkpt>
      <trkpt lat="44.04181" lon="3.73493">
        <ele>521.12344641941</ele>
        <time>2017-04-07T11:57:16Z</time>
      </trkpt>
      <trkpt lat="44.04188" lon="3.73494">
        <ele>518.74974974245</ele>
        <time>2017-04-07T11:57:21Z</time>
      </trkpt>
      <trkpt lat="44.04194" lon="3.73494">
        <ele>518.74974974245</ele>
        <time>2017-04-07T11:57:26Z</time>
      </trkpt>
      <trkpt lat="44.042" lon="3.73493">
        <ele>516.45455058951</ele>
        <time>2017-04-07T11:57:36Z</time>
      </trkpt>
      <trkpt lat="44.04221" lon="3.73496">
        <ele>513.88573449988</ele>
        <time>2017-04-07T11:58:00Z</time>
      </trkpt>
      <trkpt lat="44.04247" lon="3.73497">
        <ele>510.97313483927</ele>
        <time>2017-04-07T11:58:39Z</time>
      </trkpt>
      <trkpt lat="44.04293" lon="3.73489">
        <ele>506.61824257664</ele>
        <time>2017-04-07T11:59:33Z</time>
      </trkpt>
      <trkpt lat="44.04293" lon="3.7349">
        <ele>506.61824257664</ele>
        <time>2017-04-07T11:59:36Z</time>
      </trkpt>
      <trkpt lat="44.04302" lon="3.73485">
        <ele>501.98581461886</ele>
        <time>2017-04-07T12:00:41Z</time>
      </trkpt>
      <trkpt lat="44.04301" lon="3.73489">
        <ele>501.98581461886</ele>
        <time>2017-04-07T12:00:46Z</time>
      </trkpt>
      <trkpt lat="44.04298" lon="3.73492">
        <ele>501.98581461886</ele>
        <time>2017-04-07T12:00:51Z</time>
      </trkpt>
      <trkpt lat="44.04294" lon="3.73497">
        <ele>497.64334017532</ele>
        <time>2017-04-07T12:00:56Z</time>
      </trkpt>
      <trkpt lat="44.04286" lon="3.73501">
        <ele>497.64334017532</ele>
        <time>2017-04-07T12:01:01Z</time>
      </trkpt>
      <trkpt lat="44.0428" lon="3.73506">
        <ele>493.56694692331</ele>
        <time>2017-04-07T12:01:10Z</time>
      </trkpt>
      <trkpt lat="44.0428" lon="3.73506">
        <ele>493.56694692331</ele>
        <time>2017-04-07T12:01:16Z</time>
      </trkpt>
      <trkpt lat="44.04284" lon="3.73502">
        <ele>493.56694692331</ele>
        <time>2017-04-07T12:01:46Z</time>
      </trkpt>
      <trkpt lat="44.04288" lon="3.73498">
        <ele>489.6312635359</ele>
        <time>2017-04-07T12:01:51Z</time>
      </trkpt>
      <trkpt lat="44.04295" lon="3.73492">
        <ele>489.6312635359</ele>
        <time>2017-04-07T12:01:56Z</time>
      </trkpt>
      <trkpt lat="44.04298" lon="3.73489">
        <ele>486.02756682833</ele>
        <time>2017-04-07T12:02:01Z</time>
      </trkpt>
      <trkpt lat="44.04301" lon="3.73485">
        <ele>486.02756682833</ele>
        <time>2017-04-07T12:02:06Z</time>
      </trkpt>
      <trkpt lat="44.04304" lon="3.73477">
        <ele>482.74086098334</ele>
        <time>2017-04-07T12:02:11Z</time>
      </trkpt>
      <trkpt lat="44.04311" lon="3.73471">
        <ele>482.74086098334</ele>
        <time>2017-04-07T12:02:16Z</time>
      </trkpt>
      <trkpt lat="44.04317" lon="3.73466">
        <ele>479.63988978598</ele>
        <time>2017-04-07T12:02:21Z</time>
      </trkpt>
      <trkpt lat="44.04325" lon="3.73463">
        <ele>479.63988978598</ele>
        <time>2017-04-07T12:02:26Z</time>
      </trkpt>
      <trkpt lat="44.04335" lon="3.73467">
        <ele>476.73414608816</ele>
        <time>2017-04-07T12:02:34Z</time>
      </trkpt>
      <trkpt lat="44.04373" lon="3.73481">
        <ele>474.20593658906</ele>
        <time>2017-04-07T12:03:03Z</time>
      </trkpt>
      <trkpt lat="44.04377" lon="3.73481">
        <ele>474.20593658906</ele>
        <time>2017-04-07T12:03:06Z</time>
      </trkpt>
      <trkpt lat="44.04386" lon="3.73485">
        <ele>472.04803585047</ele>
        <time>2017-04-07T12:03:11Z</time>
      </trkpt>
      <trkpt lat="44.04392" lon="3.73485">
        <ele>472.04803585047</ele>
        <time>2017-04-07T12:03:16Z</time>
      </trkpt>
      <trkpt lat="44.04396" lon="3.73482">
        <ele>470.31064755759</ele>
        <time>2017-04-07T12:03:21Z</time>
      </trkpt>
      <trkpt lat="44.04403" lon="3.73477">
        <ele>470.31064755759</ele>
        <time>2017-04-07T12:03:26Z</time>
      </trkpt>
      <trkpt lat="44.04413" lon="3.73475">
        <ele>468.95201125454</ele>
        <time>2017-04-07T12:03:31Z</time>
      </trkpt>
      <trkpt lat="44.04417" lon="3.7347">
        <ele>468.95201125454</ele>
        <time>2017-04-07T12:03:36Z</time>
      </trkpt>
      <trkpt lat="44.0442" lon="3.73471">
        <ele>468.95201125454</ele>
        <time>2017-04-07T12:03:41Z</time>
      </trkpt>
      <trkpt lat="44.04427" lon="3.73473">
        <ele>467.8167481813</ele>
        <time>2017-04-07T12:03:46Z</time>
      </trkpt>
      <trkpt lat="44.04435" lon="3.73477">
        <ele>467.8167481813</ele>
        <time>2017-04-07T12:03:51Z</time>
      </trkpt>
      <trkpt lat="44.04441" lon="3.73478">
        <ele>466.94843330634</ele>
        <time>2017-04-07T12:03:56Z</time>
      </trkpt>
      <trkpt lat="44.04446" lon="3.73476">
        <ele>466.94843330634</ele>
        <time>2017-04-07T12:04:01Z</time>
      </trkpt>
      <trkpt lat="44.04461" lon="3.7347">
        <ele>466.71856493245</ele>
        <time>2017-04-07T12:04:09Z</time>
      </trkpt>
      <trkpt lat="44.04463" lon="3.7347">
        <ele>466.71856493245</ele>
        <time>2017-04-07T12:04:12Z</time>
      </trkpt>
      <trkpt lat="44.04475" lon="3.73469">
        <ele>466.775779427</ele>
        <time>2017-04-07T12:04:27Z</time>
      </trkpt>
      <trkpt lat="44.04482" lon="3.73466">
        <ele>466.775779427</ele>
        <time>2017-04-07T12:04:27Z</time>
      </trkpt>
      <trkpt lat="44.045" lon="3.7346">
        <ele>467.28480574528</ele>
        <time>2017-04-07T12:04:40Z</time>
      </trkpt>
      <trkpt lat="44.04501" lon="3.7346">
        <ele>467.28480574528</ele>
        <time>2017-04-07T12:04:41Z</time>
      </trkpt>
      <trkpt lat="44.04506" lon="3.73461">
        <ele>467.28480574528</ele>
        <time>2017-04-07T12:04:54Z</time>
      </trkpt>
      <trkpt lat="44.04524" lon="3.73448">
        <ele>468.03597408076</ele>
        <time>2017-04-07T12:05:14Z</time>
      </trkpt>
      <trkpt lat="44.04569" lon="3.73435">
        <ele>469.0651357109</ele>
        <time>2017-04-07T12:05:49Z</time>
      </trkpt>
      <trkpt lat="44.04571" lon="3.73437">
        <ele>469.0651357109</ele>
        <time>2017-04-07T12:05:51Z</time>
      </trkpt>
      <trkpt lat="44.04578" lon="3.73436">
        <ele>469.0651357109</ele>
        <time>2017-04-07T12:05:56Z</time>
      </trkpt>
      <trkpt lat="44.04596" lon="3.73438">
        <ele>469.89979986904</ele>
        <time>2017-04-07T12:06:13Z</time>
      </trkpt>
      <trkpt lat="44.04704" lon="3.73471">
        <ele>470.96787910808</ele>
        <time>2017-04-07T12:07:34Z</time>
      </trkpt>
      <trkpt lat="44.04712" lon="3.73469">
        <ele>470.96787910808</ele>
        <time>2017-04-07T12:07:39Z</time>
      </trkpt>
      <trkpt lat="44.04746" lon="3.73451">
        <ele>472.49183699272</ele>
        <time>2017-04-07T12:08:15Z</time>
      </trkpt>
      <trkpt lat="44.04749" lon="3.73451">
        <ele>472.49183699272</ele>
        <time>2017-04-07T12:08:16Z</time>
      </trkpt>
      <trkpt lat="44.04749" lon="3.73453">
        <ele>472.49183699272</ele>
        <time>2017-04-07T12:08:21Z</time>
      </trkpt>
      <trkpt lat="44.04753" lon="3.73449">
        <ele>472.49183699272</ele>
        <time>2017-04-07T12:08:26Z</time>
      </trkpt>
      <trkpt lat="44.04756" lon="3.7345">
        <ele>474.54660528016</ele>
        <time>2017-04-07T12:08:31Z</time>
      </trkpt>
      <trkpt lat="44.04762" lon="3.73454">
        <ele>474.54660528016</ele>
        <time>2017-04-07T12:08:39Z</time>
      </trkpt>
      <trkpt lat="44.04791" lon="3.7346">
        <ele>476.32056831876</ele>
        <time>2017-04-07T12:09:00Z</time>
      </trkpt>
      <trkpt lat="44.04801" lon="3.7346">
        <ele>478.18703166269</ele>
        <time>2017-04-07T12:09:25Z</time>
      </trkpt>
      <trkpt lat="44.04814" lon="3.73459">
        <ele>480.28971647246</ele>
        <time>2017-04-07T12:09:55Z</time>
      </trkpt>
      <trkpt lat="44.04816" lon="3.73457">
        <ele>480.28971647246</ele>
        <time>2017-04-07T12:09:56Z</time>
      </trkpt>
      <trkpt lat="44.04846" lon="3.73409">
        <ele>482.32853918322</ele>
        <time>2017-04-07T12:10:36Z</time>
      </trkpt>
      <trkpt lat="44.04853" lon="3.734">
        <ele>484.28517233704</ele>
        <time>2017-04-07T12:10:46Z</time>
      </trkpt>
      <trkpt lat="44.04868" lon="3.73384">
        <ele>486.24384953381</ele>
        <time>2017-04-07T12:11:00Z</time>
      </trkpt>
      <trkpt lat="44.04883" lon="3.73374">
        <ele>488.32595635433</ele>
        <time>2017-04-07T12:11:14Z</time>
      </trkpt>
      <trkpt lat="44.04892" lon="3.73366">
        <ele>490.34084589277</ele>
        <time>2017-04-07T12:11:19Z</time>
      </trkpt>
      <trkpt lat="44.04923" lon="3.73339">
        <ele>492.44389287977</ele>
        <time>2017-04-07T12:11:45Z</time>
      </trkpt>
      <trkpt lat="44.04923" lon="3.73338">
        <ele>492.44389287977</ele>
        <time>2017-04-07T12:11:48Z</time>
      </trkpt>
      <trkpt lat="44.04941" lon="3.73328">
        <ele>494.72126041283</ele>
        <time>2017-04-07T12:12:14Z</time>
      </trkpt>
      <trkpt lat="44.04947" lon="3.7332">
        <ele>494.72126041283</ele>
        <time>2017-04-07T12:12:14Z</time>
      </trkpt>
      <trkpt lat="44.04955" lon="3.73312">
        <ele>497.0360804898</ele>
        <time>2017-04-07T12:12:24Z</time>
      </trkpt>
      <trkpt lat="44.04956" lon="3.73313">
        <ele>497.0360804898</ele>
        <time>2017-04-07T12:12:24Z</time>
      </trkpt>
      <trkpt lat="44.04962" lon="3.73307">
        <ele>497.0360804898</ele>
        <time>2017-04-07T12:12:31Z</time>
      </trkpt>
      <trkpt lat="44.04974" lon="3.73292">
        <ele>499.43468811667</ele>
        <time>2017-04-07T12:12:49Z</time>
      </trkpt>
      <trkpt lat="44.04978" lon="3.73278">
        <ele>501.71474271904</ele>
        <time>2017-04-07T12:13:00Z</time>
      </trkpt>
      <trkpt lat="44.04995" lon="3.73266">
        <ele>504.09319013168</ele>
        <time>2017-04-07T12:13:27Z</time>
      </trkpt>
      <trkpt lat="44.05004" lon="3.7326">
        <ele>506.43919339168</ele>
        <time>2017-04-07T12:13:27Z</time>
      </trkpt>
      <trkpt lat="44.0501" lon="3.73251">
        <ele>508.71839004012</ele>
        <time>2017-04-07T12:13:38Z</time>
      </trkpt>
      <trkpt lat="44.05027" lon="3.7324">
        <ele>511.43302549576</ele>
        <time>2017-04-07T12:13:56Z</time>
      </trkpt>
      <trkpt lat="44.05035" lon="3.73237">
        <ele>511.43302549576</ele>
        <time>2017-04-07T12:14:01Z</time>
      </trkpt>
      <trkpt lat="44.05063" lon="3.7321">
        <ele>514.44160452183</ele>
        <time>2017-04-07T12:14:36Z</time>
      </trkpt>
      <trkpt lat="44.05067" lon="3.73203">
        <ele>514.44160452183</ele>
        <time>2017-04-07T12:14:36Z</time>
      </trkpt>
      <trkpt lat="44.05084" lon="3.73218">
        <ele>518.50664392874</ele>
        <time>2017-04-07T12:14:57Z</time>
      </trkpt>
      <trkpt lat="44.05117" lon="3.73217">
        <ele>523.25013974198</ele>
        <time>2017-04-07T12:15:35Z</time>
      </trkpt>
      <trkpt lat="44.05143" lon="3.73217">
        <ele>529.27207699859</ele>
        <time>2017-04-07T12:16:02Z</time>
      </trkpt>
      <trkpt lat="44.05153" lon="3.7322">
        <ele>535.48101819287</ele>
        <time>2017-04-07T12:16:14Z</time>
      </trkpt>
      <trkpt lat="44.05177" lon="3.73195">
        <ele>542.49514161625</ele>
        <time>2017-04-07T12:17:09Z</time>
      </trkpt>
      <trkpt lat="44.05168" lon="3.7319">
        <ele>548.89536829697</ele>
        <time>2017-04-07T12:17:09Z</time>
      </trkpt>
      <trkpt lat="44.05158" lon="3.73192">
        <ele>554.73897732534</ele>
        <time>2017-04-07T12:17:18Z</time>
      </trkpt>
      <trkpt lat="44.05131" lon="3.73175">
        <ele>560.32606935384</ele>
        <time>2017-04-07T12:17:43Z</time>
      </trkpt>
      <trkpt lat="44.05127" lon="3.73172">
        <ele>560.32606935384</ele>
        <time>2017-04-07T12:17:43Z</time>
      </trkpt>
      <trkpt lat="44.05114" lon="3.73156">
        <ele>566.05109237943</ele>
        <time>2017-04-07T12:18:01Z</time>
      </trkpt>
      <trkpt lat="44.05113" lon="3.73151">
        <ele>566.05109237943</ele>
        <time>2017-04-07T12:18:06Z</time>
      </trkpt>
      <trkpt lat="44.05132" lon="3.73155">
        <ele>571.87582301277</ele>
        <time>2017-04-07T12:18:25Z</time>
      </trkpt>
      <trkpt lat="44.05149" lon="3.7316">
        <ele>577.95239846921</ele>
        <time>2017-04-07T12:18:41Z</time>
      </trkpt>
      <trkpt lat="44.05175" lon="3.73163">
        <ele>584.50797282907</ele>
        <time>2017-04-07T12:19:05Z</time>
      </trkpt>
      <trkpt lat="44.05177" lon="3.73163">
        <ele>584.50797282907</ele>
        <time>2017-04-07T12:19:09Z</time>
      </trkpt>
      <trkpt lat="44.05183" lon="3.73162">
        <ele>584.50797282907</ele>
        <time>2017-04-07T12:19:12Z</time>
      </trkpt>
      <trkpt lat="44.05183" lon="3.73158">
        <ele>590.85839896053</ele>
        <time>2017-04-07T12:19:31Z</time>
      </trkpt>
      <trkpt lat="44.05161" lon="3.73151">
        <ele>596.83214823757</ele>
        <time>2017-04-07T12:19:50Z</time>
      </trkpt>
      <trkpt lat="44.05153" lon="3.73152">
        <ele>596.83214823757</ele>
        <time>2017-04-07T12:19:52Z</time>
      </trkpt>
      <trkpt lat="44.05146" lon="3.73151">
        <ele>602.48801954451</ele>
        <time>2017-04-07T12:20:09Z</time>
      </trkpt>
      <trkpt lat="44.05142" lon="3.73148">
        <ele>602.48801954451</ele>
        <time>2017-04-07T12:20:09Z</time>
      </trkpt>
      <trkpt lat="44.05148" lon="3.73144">
        <ele>607.70887270092</ele>
        <time>2017-04-07T12:20:16Z</time>
      </trkpt>
      <trkpt lat="44.05178" lon="3.73132">
        <ele>613.41114783008</ele>
        <time>2017-04-07T12:21:12Z</time>
      </trkpt>
      <trkpt lat="44.05184" lon="3.73128">
        <ele>613.41114783008</ele>
        <time>2017-04-07T12:21:12Z</time>
      </trkpt>
      <trkpt lat="44.05193" lon="3.73126">
        <ele>618.78557258951</ele>
        <time>2017-04-07T12:21:29Z</time>
      </trkpt>
      <trkpt lat="44.05202" lon="3.73127">
        <ele>618.78557258951</ele>
        <time>2017-04-07T12:21:30Z</time>
      </trkpt>
      <trkpt lat="44.05228" lon="3.73142">
        <ele>624.17906334688</ele>
        <time>2017-04-07T12:22:06Z</time>
      </trkpt>
      <trkpt lat="44.05238" lon="3.73151">
        <ele>629.00546635349</ele>
        <time>2017-04-07T12:22:28Z</time>
      </trkpt>
      <trkpt lat="44.05253" lon="3.73161">
        <ele>633.5884309685</ele>
        <time>2017-04-07T12:22:38Z</time>
      </trkpt>
      <trkpt lat="44.05275" lon="3.73158">
        <ele>637.79656522098</ele>
        <time>2017-04-07T12:23:03Z</time>
      </trkpt>
      <trkpt lat="44.0531" lon="3.73145">
        <ele>642.0283929898</ele>
        <time>2017-04-07T12:23:58Z</time>
      </trkpt>
      <trkpt lat="44.0533" lon="3.73153">
        <ele>646.50935433976</ele>
        <time>2017-04-07T12:24:24Z</time>
      </trkpt>
      <trkpt lat="44.0533" lon="3.73153">
        <ele>646.50935433976</ele>
        <time>2017-04-07T12:24:30Z</time>
      </trkpt>
      <trkpt lat="44.05344" lon="3.73158">
        <ele>651.0300641878</ele>
        <time>2017-04-07T12:24:55Z</time>
      </trkpt>
      <trkpt lat="44.05346" lon="3.73159">
        <ele>651.0300641878</ele>
        <time>2017-04-07T12:25:00Z</time>
      </trkpt>
      <trkpt lat="44.0536" lon="3.73164">
        <ele>655.31029060145</ele>
        <time>2017-04-07T12:25:27Z</time>
      </trkpt>
      <trkpt lat="44.0537" lon="3.73166">
        <ele>658.97610286231</ele>
        <time>2017-04-07T12:25:47Z</time>
      </trkpt>
      <trkpt lat="44.0538" lon="3.73165">
        <ele>662.47569155866</ele>
        <time>2017-04-07T12:26:00Z</time>
      </trkpt>
      <trkpt lat="44.0541" lon="3.73172">
        <ele>666.00890970866</ele>
        <time>2017-04-07T12:26:44Z</time>
      </trkpt>
      <trkpt lat="44.05411" lon="3.73172">
        <ele>666.00890970866</ele>
        <time>2017-04-07T12:26:52Z</time>
      </trkpt>
      <trkpt lat="44.05423" lon="3.73194">
        <ele>669.27112019304</ele>
        <time>2017-04-07T12:27:29Z</time>
      </trkpt>
      <trkpt lat="44.05429" lon="3.73203">
        <ele>672.22606075853</ele>
        <time>2017-04-07T12:27:50Z</time>
      </trkpt>
      <trkpt lat="44.0543" lon="3.73204">
        <ele>672.22606075853</ele>
        <time>2017-04-07T12:27:50Z</time>
      </trkpt>
      <trkpt lat="44.0544" lon="3.73211">
        <ele>674.65386845037</ele>
        <time>2017-04-07T12:28:08Z</time>
      </trkpt>
      <trkpt lat="44.05441" lon="3.73213">
        <ele>674.65386845037</ele>
        <time>2017-04-07T12:28:09Z</time>
      </trkpt>
      <trkpt lat="44.0545" lon="3.73218">
        <ele>676.72719952605</ele>
        <time>2017-04-07T12:28:27Z</time>
      </trkpt>
      <trkpt lat="44.05462" lon="3.73228">
        <ele>678.54954537636</ele>
        <time>2017-04-07T12:28:58Z</time>
      </trkpt>
      <trkpt lat="44.05465" lon="3.73224">
        <ele>678.54954537636</ele>
        <time>2017-04-07T12:28:58Z</time>
      </trkpt>
      <trkpt lat="44.05473" lon="3.73218">
        <ele>680.80850818492</ele>
        <time>2017-04-07T12:29:31Z</time>
      </trkpt>
      <trkpt lat="44.05486" lon="3.73222">
        <ele>683.16009488152</ele>
        <time>2017-04-07T12:30:04Z</time>
      </trkpt>
      <trkpt lat="44.05488" lon="3.73223">
        <ele>683.16009488152</ele>
        <time>2017-04-07T12:30:06Z</time>
      </trkpt>
      <trkpt lat="44.05491" lon="3.73225">
        <ele>683.16009488152</ele>
        <time>2017-04-07T12:30:11Z</time>
      </trkpt>
      <trkpt lat="44.05497" lon="3.73223">
        <ele>685.37187804086</ele>
        <time>2017-04-07T12:30:41Z</time>
      </trkpt>
      <trkpt lat="44.05502" lon="3.73228">
        <ele>685.37187804086</ele>
        <time>2017-04-07T12:30:41Z</time>
      </trkpt>
      <trkpt lat="44.05514" lon="3.73231">
        <ele>687.71895119607</ele>
        <time>2017-04-07T12:31:08Z</time>
      </trkpt>
      <trkpt lat="44.05525" lon="3.73235">
        <ele>689.83617211222</ele>
        <time>2017-04-07T12:31:16Z</time>
      </trkpt>
      <trkpt lat="44.05526" lon="3.73235">
        <ele>689.83617211222</ele>
        <time>2017-04-07T12:31:17Z</time>
      </trkpt>
      <trkpt lat="44.05531" lon="3.73238">
        <ele>689.83617211222</ele>
        <time>2017-04-07T12:31:25Z</time>
      </trkpt>
      <trkpt lat="44.05532" lon="3.73238">
        <ele>689.83617211222</ele>
        <time>2017-04-07T12:31:25Z</time>
      </trkpt>
      <trkpt lat="44.05537" lon="3.7324">
        <ele>691.70294326197</ele>
        <time>2017-04-07T12:31:33Z</time>
      </trkpt>
      <trkpt lat="44.05539" lon="3.73241">
        <ele>691.70294326197</ele>
        <time>2017-04-07T12:31:41Z</time>
      </trkpt>
      <trkpt lat="44.05561" lon="3.73251">
        <ele>693.87734792724</ele>
        <time>2017-04-07T12:32:10Z</time>
      </trkpt>
      <trkpt lat="44.05571" lon="3.73248">
        <ele>696.28472631884</ele>
        <time>2017-04-07T12:32:26Z</time>
      </trkpt>
      <trkpt lat="44.05578" lon="3.73254">
        <ele>696.28472631884</ele>
        <time>2017-04-07T12:32:36Z</time>
      </trkpt>
      <trkpt lat="44.05583" lon="3.73257">
        <ele>698.88404465096</ele>
        <time>2017-04-07T12:32:41Z</time>
      </trkpt>
      <trkpt lat="44.05587" lon="3.73259">
        <ele>698.88404465096</ele>
        <time>2017-04-07T12:32:46Z</time>
      </trkpt>
      <trkpt lat="44.05592" lon="3.7326">
        <ele>701.29082816537</ele>
        <time>2017-04-07T12:32:51Z</time>
      </trkpt>
      <trkpt lat="44.05603" lon="3.73268">
        <ele>703.4663859467</ele>
        <time>2017-04-07T12:33:08Z</time>
      </trkpt>
      <trkpt lat="44.05628" lon="3.73276">
        <ele>705.93750138756</ele>
        <time>2017-04-07T12:34:03Z</time>
      </trkpt>
      <trkpt lat="44.05628" lon="3.73275">
        <ele>705.93750138756</ele>
        <time>2017-04-07T12:34:03Z</time>
      </trkpt>
      <trkpt lat="44.05611" lon="3.73254">
        <ele>708.44196119488</ele>
        <time>2017-04-07T12:34:26Z</time>
      </trkpt>
      <trkpt lat="44.05609" lon="3.7325">
        <ele>708.44196119488</ele>
        <time>2017-04-07T12:34:27Z</time>
      </trkpt>
      <trkpt lat="44.05599" lon="3.73215">
        <ele>711.18339468594</ele>
        <time>2017-04-07T12:35:19Z</time>
      </trkpt>
      <trkpt lat="44.05599" lon="3.73207">
        <ele>711.18339468594</ele>
        <time>2017-04-07T12:35:46Z</time>
      </trkpt>
      <trkpt lat="44.05595" lon="3.73233">
        <ele>714.85411949512</ele>
        <time>2017-04-07T12:38:07Z</time>
      </trkpt>
      <trkpt lat="44.05596" lon="3.7324">
        <ele>714.85411949512</ele>
        <time>2017-04-07T12:38:07Z</time>
      </trkpt>
      <trkpt lat="44.05623" lon="3.73294">
        <ele>717.93118806672</ele>
        <time>2017-04-07T12:38:55Z</time>
      </trkpt>
      <trkpt lat="44.05635" lon="3.73303">
        <ele>720.57594943806</ele>
        <time>2017-04-07T12:39:11Z</time>
      </trkpt>
      <trkpt lat="44.05648" lon="3.7331">
        <ele>722.76608271331</ele>
        <time>2017-04-07T12:39:28Z</time>
      </trkpt>
      <trkpt lat="44.05653" lon="3.73312">
        <ele>722.76608271331</ele>
        <time>2017-04-07T12:39:28Z</time>
      </trkpt>
      <trkpt lat="44.05669" lon="3.73317">
        <ele>724.71266696308</ele>
        <time>2017-04-07T12:39:54Z</time>
      </trkpt>
      <trkpt lat="44.05673" lon="3.73321">
        <ele>724.71266696308</ele>
        <time>2017-04-07T12:39:58Z</time>
      </trkpt>
      <trkpt lat="44.05691" lon="3.73326">
        <ele>726.5542100781</ele>
        <time>2017-04-07T12:40:28Z</time>
      </trkpt>
      <trkpt lat="44.05712" lon="3.73336">
        <ele>728.20306015031</ele>
        <time>2017-04-07T12:40:41Z</time>
      </trkpt>
      <trkpt lat="44.05738" lon="3.7337">
        <ele>730.08282175474</ele>
        <time>2017-04-07T12:41:33Z</time>
      </trkpt>
      <trkpt lat="44.05758" lon="3.73385">
        <ele>732.00875707765</ele>
        <time>2017-04-07T12:42:00Z</time>
      </trkpt>
      <trkpt lat="44.05759" lon="3.73386">
        <ele>732.00875707765</ele>
        <time>2017-04-07T12:42:00Z</time>
      </trkpt>
      <trkpt lat="44.05763" lon="3.73388">
        <ele>732.00875707765</ele>
        <time>2017-04-07T12:42:06Z</time>
      </trkpt>
      <trkpt lat="44.05793" lon="3.73423">
        <ele>734.57323521187</ele>
        <time>2017-04-07T12:43:04Z</time>
      </trkpt>
      <trkpt lat="44.0583" lon="3.73451">
        <ele>737.80438023884</ele>
        <time>2017-04-07T12:44:04Z</time>
      </trkpt>
      <trkpt lat="44.05831" lon="3.73451">
        <ele>737.80438023884</ele>
        <time>2017-04-07T12:44:04Z</time>
      </trkpt>
      <trkpt lat="44.05857" lon="3.73463">
        <ele>741.33714684438</ele>
        <time>2017-04-07T12:44:39Z</time>
      </trkpt>
      <trkpt lat="44.0586" lon="3.73464">
        <ele>741.33714684438</ele>
        <time>2017-04-07T12:44:44Z</time>
      </trkpt>
      <trkpt lat="44.05881" lon="3.73474">
        <ele>745.2358487742</ele>
        <time>2017-04-07T12:45:09Z</time>
      </trkpt>
      <trkpt lat="44.05899" lon="3.73504">
        <ele>750.29390378954</ele>
        <time>2017-04-07T12:46:02Z</time>
      </trkpt>
      <trkpt lat="44.05899" lon="3.73508">
        <ele>750.29390378954</ele>
        <time>2017-04-07T12:46:05Z</time>
      </trkpt>
      <trkpt lat="44.05899" lon="3.73509">
        <ele>750.29390378954</ele>
        <time>2017-04-07T12:46:06Z</time>
      </trkpt>
      <trkpt lat="44.05899" lon="3.73511">
        <ele>750.29390378954</ele>
        <time>2017-04-07T12:46:16Z</time>
      </trkpt>
      <trkpt lat="44.05902" lon="3.73523">
        <ele>755.35522830433</ele>
        <time>2017-04-07T12:47:22Z</time>
      </trkpt>
      <trkpt lat="44.05902" lon="3.73533">
        <ele>755.35522830433</ele>
        <time>2017-04-07T12:47:24Z</time>
      </trkpt>
      <trkpt lat="44.05879" lon="3.7353">
        <ele>760.11236483818</ele>
        <time>2017-04-07T12:48:16Z</time>
      </trkpt>
      <trkpt lat="44.05874" lon="3.73529">
        <ele>760.11236483818</ele>
        <time>2017-04-07T12:48:21Z</time>
      </trkpt>
      <trkpt lat="44.05867" lon="3.73528">
        <ele>764.33887263164</ele>
        <time>2017-04-07T12:48:26Z</time>
      </trkpt>
      <trkpt lat="44.05861" lon="3.73529">
        <ele>764.33887263164</ele>
        <time>2017-04-07T12:48:31Z</time>
      </trkpt>
      <trkpt lat="44.05856" lon="3.73529">
        <ele>768.04254871959</ele>
        <time>2017-04-07T12:48:36Z</time>
      </trkpt>
      <trkpt lat="44.05851" lon="3.73529">
        <ele>768.04254871959</ele>
        <time>2017-04-07T12:48:41Z</time>
      </trkpt>
      <trkpt lat="44.05846" lon="3.73531">
        <ele>771.34733163461</ele>
        <time>2017-04-07T12:48:46Z</time>
      </trkpt>
      <trkpt lat="44.0584" lon="3.73533">
        <ele>771.34733163461</ele>
        <time>2017-04-07T12:48:51Z</time>
      </trkpt>
      <trkpt lat="44.05835" lon="3.73537">
        <ele>774.29708381102</ele>
        <time>2017-04-07T12:48:56Z</time>
      </trkpt>
      <trkpt lat="44.05835" lon="3.73542">
        <ele>774.29708381102</ele>
        <time>2017-04-07T12:49:01Z</time>
      </trkpt>
      <trkpt lat="44.05838" lon="3.73542">
        <ele>774.29708381102</ele>
        <time>2017-04-07T12:49:06Z</time>
      </trkpt>
      <trkpt lat="44.05842" lon="3.7354">
        <ele>776.97664275884</ele>
        <time>2017-04-07T12:49:11Z</time>
      </trkpt>
      <trkpt lat="44.05847" lon="3.7354">
        <ele>776.97664275884</ele>
        <time>2017-04-07T12:49:16Z</time>
      </trkpt>
      <trkpt lat="44.05862" lon="3.73553">
        <ele>779.94090728354</ele>
        <time>2017-04-07T12:49:36Z</time>
      </trkpt>
      <trkpt lat="44.05862" lon="3.73557">
        <ele>779.94090728354</ele>
        <time>2017-04-07T12:49:46Z</time>
      </trkpt>
      <trkpt lat="44.05871" lon="3.73598">
        <ele>783.12673767476</ele>
        <time>2017-04-07T12:50:25Z</time>
      </trkpt>
      <trkpt lat="44.05871" lon="3.73599">
        <ele>783.12673767476</ele>
        <time>2017-04-07T12:50:26Z</time>
      </trkpt>
      <trkpt lat="44.05872" lon="3.73616">
        <ele>786.12911115274</ele>
        <time>2017-04-07T12:50:41Z</time>
      </trkpt>
      <trkpt lat="44.0586" lon="3.73659">
        <ele>790.02876407365</ele>
        <time>2017-04-07T12:52:06Z</time>
      </trkpt>
      <trkpt lat="44.05862" lon="3.73665">
        <ele>790.02876407365</ele>
        <time>2017-04-07T12:52:11Z</time>
      </trkpt>
      <trkpt lat="44.05863" lon="3.73675">
        <ele>793.61959466561</ele>
        <time>2017-04-07T12:52:21Z</time>
      </trkpt>
      <trkpt lat="44.05863" lon="3.73677">
        <ele>793.61959466561</ele>
        <time>2017-04-07T12:52:26Z</time>
      </trkpt>
      <trkpt lat="44.05868" lon="3.73687">
        <ele>797.00988655959</ele>
        <time>2017-04-07T12:52:36Z</time>
      </trkpt>
      <trkpt lat="44.05869" lon="3.73692">
        <ele>797.00988655959</ele>
        <time>2017-04-07T12:52:41Z</time>
      </trkpt>
      <trkpt lat="44.05874" lon="3.73699">
        <ele>800.27168698836</ele>
        <time>2017-04-07T12:52:51Z</time>
      </trkpt>
      <trkpt lat="44.05874" lon="3.73704">
        <ele>800.27168698836</ele>
        <time>2017-04-07T12:52:56Z</time>
      </trkpt>
      <trkpt lat="44.05878" lon="3.73722">
        <ele>803.5297367023</ele>
        <time>2017-04-07T12:53:13Z</time>
      </trkpt>
      <trkpt lat="44.05881" lon="3.73734">
        <ele>803.5297367023</ele>
        <time>2017-04-07T12:53:34Z</time>
      </trkpt>
      <trkpt lat="44.05884" lon="3.7374">
        <ele>806.75549554968</ele>
        <time>2017-04-07T12:53:34Z</time>
      </trkpt>
      <trkpt lat="44.05886" lon="3.73748">
        <ele>806.75549554968</ele>
        <time>2017-04-07T12:53:47Z</time>
      </trkpt>
      <trkpt lat="44.05876" lon="3.73794">
        <ele>810.61432999561</ele>
        <time>2017-04-07T12:54:39Z</time>
      </trkpt>
      <trkpt lat="44.05875" lon="3.73796">
        <ele>810.61432999561</ele>
        <time>2017-04-07T12:54:41Z</time>
      </trkpt>
      <trkpt lat="44.0587" lon="3.73819">
        <ele>814.27982908441</ele>
        <time>2017-04-07T12:55:04Z</time>
      </trkpt>
      <trkpt lat="44.0587" lon="3.73824">
        <ele>814.27982908441</ele>
        <time>2017-04-07T12:55:08Z</time>
      </trkpt>
      <trkpt lat="44.05865" lon="3.73883">
        <ele>818.73057069427</ele>
        <time>2017-04-07T12:56:02Z</time>
      </trkpt>
      <trkpt lat="44.05867" lon="3.73924">
        <ele>823.57404293881</ele>
        <time>2017-04-07T12:56:52Z</time>
      </trkpt>
      <trkpt lat="44.0587" lon="3.73944">
        <ele>827.99872920703</ele>
        <time>2017-04-07T12:56:52Z</time>
      </trkpt>
      <trkpt lat="44.05868" lon="3.74024">
        <ele>833.15618845313</ele>
        <time>2017-04-07T12:57:59Z</time>
      </trkpt>
      <trkpt lat="44.05868" lon="3.74034">
        <ele>833.15618845313</ele>
        <time>2017-04-07T12:57:59Z</time>
      </trkpt>
      <trkpt lat="44.05886" lon="3.74048">
        <ele>838.39643770731</ele>
        <time>2017-04-07T12:58:35Z</time>
      </trkpt>
      <trkpt lat="44.05891" lon="3.74048">
        <ele>838.39643770731</ele>
        <time>2017-04-07T12:58:35Z</time>
      </trkpt>
      <trkpt lat="44.05923" lon="3.7409">
        <ele>843.23233993469</ele>
        <time>2017-04-07T13:00:00Z</time>
      </trkpt>
      <trkpt lat="44.05937" lon="3.7413">
        <ele>847.44430689801</ele>
        <time>2017-04-07T13:00:40Z</time>
      </trkpt>
      <trkpt lat="44.05945" lon="3.74139">
        <ele>851.16214663876</ele>
        <time>2017-04-07T13:00:40Z</time>
      </trkpt>
      <trkpt lat="44.0596" lon="3.74151">
        <ele>854.78139234289</ele>
        <time>2017-04-07T13:00:59Z</time>
      </trkpt>
      <trkpt lat="44.05978" lon="3.74171">
        <ele>857.89066014382</ele>
        <time>2017-04-07T13:01:38Z</time>
      </trkpt>
      <trkpt lat="44.05983" lon="3.74183">
        <ele>860.62907636775</ele>
        <time>2017-04-07T13:01:38Z</time>
      </trkpt>
      <trkpt lat="44.06" lon="3.74191">
        <ele>862.9392949502</ele>
        <time>2017-04-07T13:02:11Z</time>
      </trkpt>
      <trkpt lat="44.06038" lon="3.74167">
        <ele>864.51002513027</ele>
        <time>2017-04-07T13:02:52Z</time>
      </trkpt>
      <trkpt lat="44.06042" lon="3.74165">
        <ele>864.51002513027</ele>
        <time>2017-04-07T13:02:52Z</time>
      </trkpt>
      <trkpt lat="44.06082" lon="3.74167">
        <ele>865.21346753635</ele>
        <time>2017-04-07T13:03:46Z</time>
      </trkpt>
      <trkpt lat="44.06089" lon="3.74204">
        <ele>865.53892021124</ele>
        <time>2017-04-07T13:04:18Z</time>
      </trkpt>
      <trkpt lat="44.06097" lon="3.74238">
        <ele>865.58050730868</ele>
        <time>2017-04-07T13:04:48Z</time>
      </trkpt>
      <trkpt lat="44.06099" lon="3.74272">
        <ele>865.57030975022</ele>
        <time>2017-04-07T13:05:29Z</time>
      </trkpt>
      <trkpt lat="44.06102" lon="3.74282">
        <ele>865.57030975022</ele>
        <time>2017-04-07T13:05:29Z</time>
      </trkpt>
      <trkpt lat="44.06176" lon="3.74293">
        <ele>866.55929097655</ele>
        <time>2017-04-07T13:07:01Z</time>
      </trkpt>
      <trkpt lat="44.06194" lon="3.7431">
        <ele>867.7169380219</ele>
        <time>2017-04-07T13:07:40Z</time>
      </trkpt>
      <trkpt lat="44.06197" lon="3.74314">
        <ele>867.7169380219</ele>
        <time>2017-04-07T13:07:40Z</time>
      </trkpt>
      <trkpt lat="44.06197" lon="3.74315">
        <ele>867.7169380219</ele>
        <time>2017-04-07T13:07:41Z</time>
      </trkpt>
      <trkpt lat="44.06198" lon="3.74319">
        <ele>867.7169380219</ele>
        <time>2017-04-07T13:07:58Z</time>
      </trkpt>
      <trkpt lat="44.06201" lon="3.74334">
        <ele>869.18107843425</ele>
        <time>2017-04-07T13:08:10Z</time>
      </trkpt>
      <trkpt lat="44.06201" lon="3.74336">
        <ele>869.18107843425</ele>
        <time>2017-04-07T13:08:12Z</time>
      </trkpt>
      <trkpt lat="44.06207" lon="3.74366">
        <ele>870.80463591995</ele>
        <time>2017-04-07T13:08:56Z</time>
      </trkpt>
      <trkpt lat="44.06217" lon="3.74383">
        <ele>872.40754167378</ele>
        <time>2017-04-07T13:09:19Z</time>
      </trkpt>
      <trkpt lat="44.06236" lon="3.74389">
        <ele>874.0678796393</ele>
        <time>2017-04-07T13:09:19Z</time>
      </trkpt>
      <trkpt lat="44.06277" lon="3.74393">
        <ele>875.65595450726</ele>
        <time>2017-04-07T13:10:10Z</time>
      </trkpt>
      <trkpt lat="44.06292" lon="3.74386">
        <ele>877.28224904597</ele>
        <time>2017-04-07T13:10:16Z</time>
      </trkpt>
      <trkpt lat="44.06293" lon="3.74385">
        <ele>877.28224904597</ele>
        <time>2017-04-07T13:10:17Z</time>
      </trkpt>
      <trkpt lat="44.06313" lon="3.74384">
        <ele>879.25064633207</ele>
        <time>2017-04-07T13:10:43Z</time>
      </trkpt>
      <trkpt lat="44.06317" lon="3.74386">
        <ele>879.25064633207</ele>
        <time>2017-04-07T13:10:47Z</time>
      </trkpt>
      <trkpt lat="44.0632" lon="3.74386">
        <ele>879.25064633207</ele>
        <time>2017-04-07T13:10:51Z</time>
      </trkpt>
      <trkpt lat="44.06324" lon="3.74386">
        <ele>881.30840209905</ele>
        <time>2017-04-07T13:10:56Z</time>
      </trkpt>
      <trkpt lat="44.06328" lon="3.74388">
        <ele>881.30840209905</ele>
        <time>2017-04-07T13:11:21Z</time>
      </trkpt>
      <trkpt lat="44.06336" lon="3.74394">
        <ele>883.40829959393</ele>
        <time>2017-04-07T13:11:36Z</time>
      </trkpt>
      <trkpt lat="44.06389" lon="3.74388">
        <ele>885.08841807426</ele>
        <time>2017-04-07T13:13:23Z</time>
      </trkpt>
      <trkpt lat="44.06478" lon="3.74401">
        <ele>888.34288696684</ele>
        <time>2017-04-07T13:15:00Z</time>
      </trkpt>
      <trkpt lat="44.06479" lon="3.74402">
        <ele>888.34288696684</ele>
        <time>2017-04-07T13:15:06Z</time>
      </trkpt>
      <trkpt lat="44.06501" lon="3.74413">
        <ele>891.74348607308</ele>
        <time>2017-04-07T13:15:30Z</time>
      </trkpt>
      <trkpt lat="44.06518" lon="3.74446">
        <ele>894.48518744389</ele>
        <time>2017-04-07T13:16:09Z</time>
      </trkpt>
      <trkpt lat="44.06553" lon="3.74466">
        <ele>896.21294165869</ele>
        <time>2017-04-07T13:16:50Z</time>
      </trkpt>
      <trkpt lat="44.06558" lon="3.74473">
        <ele>896.21294165869</ele>
        <time>2017-04-07T13:16:50Z</time>
      </trkpt>
      <trkpt lat="44.06563" lon="3.74479">
        <ele>896.81669015632</ele>
        <time>2017-04-07T13:16:58Z</time>
      </trkpt>
      <trkpt lat="44.06576" lon="3.74483">
        <ele>896.58660917233</ele>
        <time>2017-04-07T13:17:24Z</time>
      </trkpt>
      <trkpt lat="44.06603" lon="3.74482">
        <ele>895.7505528741</ele>
        <time>2017-04-07T13:17:32Z</time>
      </trkpt>
      <trkpt lat="44.06616" lon="3.74481">
        <ele>894.50680035663</ele>
        <time>2017-04-07T13:18:06Z</time>
      </trkpt>
      <trkpt lat="44.06628" lon="3.74484">
        <ele>893.27064327303</ele>
        <time>2017-04-07T13:18:30Z</time>
      </trkpt>
      <trkpt lat="44.06632" lon="3.74487">
        <ele>893.27064327303</ele>
        <time>2017-04-07T13:18:30Z</time>
      </trkpt>
      <trkpt lat="44.06641" lon="3.74493">
        <ele>891.83582612234</ele>
        <time>2017-04-07T13:18:45Z</time>
      </trkpt>
      <trkpt lat="44.0665" lon="3.74497">
        <ele>890.31425310234</ele>
        <time>2017-04-07T13:18:54Z</time>
      </trkpt>
      <trkpt lat="44.06689" lon="3.74501">
        <ele>888.26202703343</ele>
        <time>2017-04-07T13:19:41Z</time>
      </trkpt>
      <trkpt lat="44.06689" lon="3.74505">
        <ele>888.26202703343</ele>
        <time>2017-04-07T13:19:46Z</time>
      </trkpt>
      <trkpt lat="44.06689" lon="3.74506">
        <ele>888.26202703343</ele>
        <time>2017-04-07T13:19:56Z</time>
      </trkpt>
      <trkpt lat="44.06692" lon="3.74511">
        <ele>888.26202703343</ele>
        <time>2017-04-07T13:20:11Z</time>
      </trkpt>
      <trkpt lat="44.06692" lon="3.74512">
        <ele>888.26202703343</ele>
        <time>2017-04-07T13:20:16Z</time>
      </trkpt>
      <trkpt lat="44.06694" lon="3.74512">
        <ele>885.94644931036</ele>
        <time>2017-04-07T13:20:41Z</time>
      </trkpt>
      <trkpt lat="44.06697" lon="3.74522">
        <ele>885.94644931036</ele>
        <time>2017-04-07T13:20:51Z</time>
      </trkpt>
      <trkpt lat="44.06689" lon="3.74563">
        <ele>883.21217248634</ele>
        <time>2017-04-07T13:21:29Z</time>
      </trkpt>
      <trkpt lat="44.06689" lon="3.74572">
        <ele>883.21217248634</ele>
        <time>2017-04-07T13:21:34Z</time>
      </trkpt>
      <trkpt lat="44.06704" lon="3.74625">
        <ele>880.37733080605</ele>
        <time>2017-04-07T13:22:13Z</time>
      </trkpt>
      <trkpt lat="44.06714" lon="3.74639">
        <ele>877.6069906359</ele>
        <time>2017-04-07T13:22:32Z</time>
      </trkpt>
      <trkpt lat="44.06718" lon="3.74644">
        <ele>877.6069906359</ele>
        <time>2017-04-07T13:22:32Z</time>
      </trkpt>
      <trkpt lat="44.06722" lon="3.74659">
        <ele>874.85185751855</ele>
        <time>2017-04-07T13:22:51Z</time>
      </trkpt>
      <trkpt lat="44.06724" lon="3.74661">
        <ele>874.85185751855</ele>
        <time>2017-04-07T13:22:51Z</time>
      </trkpt>
      <trkpt lat="44.06725" lon="3.74662">
        <ele>874.85185751855</ele>
        <time>2017-04-07T13:22:52Z</time>
      </trkpt>
      <trkpt lat="44.06727" lon="3.74663">
        <ele>874.85185751855</ele>
        <time>2017-04-07T13:22:53Z</time>
      </trkpt>
      <trkpt lat="44.06747" lon="3.74664">
        <ele>872.16677797913</ele>
        <time>2017-04-07T13:23:16Z</time>
      </trkpt>
      <trkpt lat="44.06752" lon="3.74664">
        <ele>872.16677797913</ele>
        <time>2017-04-07T13:23:17Z</time>
      </trkpt>
      <trkpt lat="44.06785" lon="3.7466">
        <ele>869.41469867317</ele>
        <time>2017-04-07T13:23:54Z</time>
      </trkpt>
      <trkpt lat="44.06786" lon="3.7466">
        <ele>869.41469867317</ele>
        <time>2017-04-07T13:23:56Z</time>
      </trkpt>
      <trkpt lat="44.06822" lon="3.74656">
        <ele>866.49730193598</ele>
        <time>2017-04-07T13:25:01Z</time>
      </trkpt>
      <trkpt lat="44.06823" lon="3.74656">
        <ele>866.49730193598</ele>
        <time>2017-04-07T13:25:02Z</time>
      </trkpt>
      <trkpt lat="44.06872" lon="3.74694">
        <ele>863.61182551478</ele>
        <time>2017-04-07T13:26:06Z</time>
      </trkpt>
      <trkpt lat="44.06873" lon="3.74697">
        <ele>863.61182551478</ele>
        <time>2017-04-07T13:26:07Z</time>
      </trkpt>
      <trkpt lat="44.06879" lon="3.7472">
        <ele>860.78204427136</ele>
        <time>2017-04-07T13:26:27Z</time>
      </trkpt>
      <trkpt lat="44.06879" lon="3.74729">
        <ele>860.78204427136</ele>
        <time>2017-04-07T13:26:27Z</time>
      </trkpt>
      <trkpt lat="44.06912" lon="3.7472">
        <ele>856.81892493052</ele>
        <time>2017-04-07T13:27:56Z</time>
      </trkpt>
      <trkpt lat="44.06927" lon="3.74722">
        <ele>852.74201242744</ele>
        <time>2017-04-07T13:28:23Z</time>
      </trkpt>
      <trkpt lat="44.06935" lon="3.74716">
        <ele>849.00590748201</ele>
        <time>2017-04-07T13:28:23Z</time>
      </trkpt>
      <trkpt lat="44.06941" lon="3.74712">
        <ele>849.00590748201</ele>
        <time>2017-04-07T13:28:39Z</time>
      </trkpt>
      <trkpt lat="44.06954" lon="3.74703">
        <ele>845.32431576341</ele>
        <time>2017-04-07T13:28:48Z</time>
      </trkpt>
      <trkpt lat="44.06955" lon="3.74703">
        <ele>845.32431576341</ele>
        <time>2017-04-07T13:28:56Z</time>
      </trkpt>
      <trkpt lat="44.06957" lon="3.74695">
        <ele>845.32431576341</ele>
        <time>2017-04-07T13:28:56Z</time>
      </trkpt>
      <trkpt lat="44.06981" lon="3.74661">
        <ele>841.04231193553</ele>
        <time>2017-04-07T13:29:35Z</time>
      </trkpt>
      <trkpt lat="44.07001" lon="3.74637">
        <ele>837.15398355378</ele>
        <time>2017-04-07T13:29:55Z</time>
      </trkpt>
      <trkpt lat="44.07032" lon="3.74602">
        <ele>833.78625707068</ele>
        <time>2017-04-07T13:30:41Z</time>
      </trkpt>
      <trkpt lat="44.07055" lon="3.74566">
        <ele>830.8963305222</ele>
        <time>2017-04-07T13:30:42Z</time>
      </trkpt>
      <trkpt lat="44.07088" lon="3.74548">
        <ele>828.57248660908</ele>
        <time>2017-04-07T13:31:17Z</time>
      </trkpt>
      <trkpt lat="44.07108" lon="3.74545">
        <ele>826.9233459025</ele>
        <time>2017-04-07T13:31:39Z</time>
      </trkpt>
      <trkpt lat="44.07116" lon="3.74544">
        <ele>826.9233459025</ele>
        <time>2017-04-07T13:31:39Z</time>
      </trkpt>
      <trkpt lat="44.07121" lon="3.74545">
        <ele>825.91755939904</ele>
        <time>2017-04-07T13:31:41Z</time>
      </trkpt>
      <trkpt lat="44.07128" lon="3.74545">
        <ele>825.91755939904</ele>
        <time>2017-04-07T13:31:46Z</time>
      </trkpt>
      <trkpt lat="44.07137" lon="3.74543">
        <ele>825.82653140204</ele>
        <time>2017-04-07T13:31:51Z</time>
      </trkpt>
      <trkpt lat="44.07156" lon="3.74553">
        <ele>826.20707551301</ele>
        <time>2017-04-07T13:32:15Z</time>
      </trkpt>
      <trkpt lat="44.07261" lon="3.74613">
        <ele>830.22087662948</ele>
        <time>2017-04-07T13:33:41Z</time>
      </trkpt>
      <trkpt lat="44.07316" lon="3.7468">
        <ele>836.650908049</ele>
        <time>2017-04-07T13:34:42Z</time>
      </trkpt>
      <trkpt lat="44.07356" lon="3.74717">
        <ele>843.97345113569</ele>
        <time>2017-04-07T13:35:31Z</time>
      </trkpt>
      <trkpt lat="44.07383" lon="3.74711">
        <ele>851.36492316514</ele>
        <time>2017-04-07T13:35:51Z</time>
      </trkpt>
      <trkpt lat="44.07388" lon="3.74707">
        <ele>851.36492316514</ele>
        <time>2017-04-07T13:35:56Z</time>
      </trkpt>
      <trkpt lat="44.07407" lon="3.74691">
        <ele>859.02752060222</ele>
        <time>2017-04-07T13:36:24Z</time>
      </trkpt>
      <trkpt lat="44.07414" lon="3.74685">
        <ele>859.02752060222</ele>
        <time>2017-04-07T13:36:24Z</time>
      </trkpt>
      <trkpt lat="44.07433" lon="3.74668">
        <ele>866.77314048594</ele>
        <time>2017-04-07T13:36:49Z</time>
      </trkpt>
      <trkpt lat="44.07456" lon="3.74661">
        <ele>874.60027370672</ele>
        <time>2017-04-07T13:37:06Z</time>
      </trkpt>
      <trkpt lat="44.07513" lon="3.74665">
        <ele>882.27685782023</ele>
        <time>2017-04-07T13:37:48Z</time>
      </trkpt>
      <trkpt lat="44.07517" lon="3.74666">
        <ele>882.27685782023</ele>
        <time>2017-04-07T13:37:48Z</time>
      </trkpt>
      <trkpt lat="44.0756" lon="3.74688">
        <ele>887.22507623668</ele>
        <time>2017-04-07T13:38:11Z</time>
      </trkpt>
      <trkpt lat="44.07587" lon="3.74685">
        <ele>891.02743421388</ele>
        <time>2017-04-07T13:38:33Z</time>
      </trkpt>
      <trkpt lat="44.076" lon="3.7468">
        <ele>894.15931421238</ele>
        <time>2017-04-07T13:38:40Z</time>
      </trkpt>
      <trkpt lat="44.07686" lon="3.74692">
        <ele>896.7174915398</ele>
        <time>2017-04-07T13:39:57Z</time>
      </trkpt>
      <trkpt lat="44.07691" lon="3.7469">
        <ele>896.7174915398</ele>
        <time>2017-04-07T13:40:01Z</time>
      </trkpt>
      <trkpt lat="44.07708" lon="3.74606">
        <ele>898.47650575741</ele>
        <time>2017-04-07T13:41:01Z</time>
      </trkpt>
      <trkpt lat="44.07721" lon="3.74514">
        <ele>900.09467741192</ele>
        <time>2017-04-07T13:42:01Z</time>
      </trkpt>
      <trkpt lat="44.07721" lon="3.74513">
        <ele>900.09467741192</ele>
        <time>2017-04-07T13:42:03Z</time>
      </trkpt>
      <trkpt lat="44.07731" lon="3.74416">
        <ele>901.96650240782</ele>
        <time>2017-04-07T13:43:29Z</time>
      </trkpt>
      <trkpt lat="44.07731" lon="3.74414">
        <ele>901.96650240782</ele>
        <time>2017-04-07T13:43:30Z</time>
      </trkpt>
      <trkpt lat="44.07728" lon="3.74388">
        <ele>903.86623067094</ele>
        <time>2017-04-07T13:44:04Z</time>
      </trkpt>
      <trkpt lat="44.07728" lon="3.74386">
        <ele>903.86623067094</ele>
        <time>2017-04-07T13:44:06Z</time>
      </trkpt>
      <trkpt lat="44.07727" lon="3.74356">
        <ele>905.72902194821</ele>
        <time>2017-04-07T13:44:52Z</time>
      </trkpt>
      <trkpt lat="44.07727" lon="3.74356">
        <ele>905.72902194821</ele>
        <time>2017-04-07T13:45:25Z</time>
      </trkpt>
      <trkpt lat="44.07727" lon="3.74352">
        <ele>905.72902194821</ele>
        <time>2017-04-07T13:45:46Z</time>
      </trkpt>
      <trkpt lat="44.07742" lon="3.74413">
        <ele>907.98516748966</ele>
        <time>2017-04-07T13:46:58Z</time>
      </trkpt>
      <trkpt lat="44.07742" lon="3.74414">
        <ele>907.98516748966</ele>
        <time>2017-04-07T13:46:59Z</time>
      </trkpt>
      <trkpt lat="44.07747" lon="3.74433">
        <ele>910.0381593362</ele>
        <time>2017-04-07T13:47:44Z</time>
      </trkpt>
      <trkpt lat="44.07744" lon="3.74447">
        <ele>911.72525194799</ele>
        <time>2017-04-07T13:48:00Z</time>
      </trkpt>
      <trkpt lat="44.07742" lon="3.7445">
        <ele>911.72525194799</ele>
        <time>2017-04-07T13:48:11Z</time>
      </trkpt>
      <trkpt lat="44.07755" lon="3.74461">
        <ele>913.1995802663</ele>
        <time>2017-04-07T13:49:08Z</time>
      </trkpt>
      <trkpt lat="44.07756" lon="3.74462">
        <ele>913.1995802663</ele>
        <time>2017-04-07T13:49:08Z</time>
      </trkpt>
      <trkpt lat="44.07754" lon="3.74459">
        <ele>913.1995802663</ele>
        <time>2017-04-07T13:49:53Z</time>
      </trkpt>
      <trkpt lat="44.07752" lon="3.74453">
        <ele>914.01302638082</ele>
        <time>2017-04-07T14:15:34Z</time>
      </trkpt>
      <trkpt lat="44.07747" lon="3.7445">
        <ele>914.01302638082</ele>
        <time>2017-04-07T14:15:43Z</time>
      </trkpt>
      <trkpt lat="44.07745" lon="3.74455">
        <ele>914.80449912648</ele>
        <time>2017-04-07T14:15:50Z</time>
      </trkpt>
      <trkpt lat="44.07744" lon="3.74468">
        <ele>915.66187434721</ele>
        <time>2017-04-07T14:16:15Z</time>
      </trkpt>
      <trkpt lat="44.07744" lon="3.74474">
        <ele>915.66187434721</ele>
        <time>2017-04-07T14:16:15Z</time>
      </trkpt>
      <trkpt lat="44.07749" lon="3.74499">
        <ele>916.85394550395</ele>
        <time>2017-04-07T14:16:36Z</time>
      </trkpt>
      <trkpt lat="44.07749" lon="3.74523">
        <ele>918.03816432561</ele>
        <time>2017-04-07T14:16:51Z</time>
      </trkpt>
      <trkpt lat="44.0775" lon="3.7453">
        <ele>918.03816432561</ele>
        <time>2017-04-07T14:16:56Z</time>
      </trkpt>
      <trkpt lat="44.07751" lon="3.74539">
        <ele>919.31527530211</ele>
        <time>2017-04-07T14:17:12Z</time>
      </trkpt>
      <trkpt lat="44.07752" lon="3.74551">
        <ele>919.31527530211</ele>
        <time>2017-04-07T14:17:12Z</time>
      </trkpt>
      <trkpt lat="44.07752" lon="3.74568">
        <ele>920.83617945167</ele>
        <time>2017-04-07T14:17:31Z</time>
      </trkpt>
      <trkpt lat="44.07755" lon="3.74584">
        <ele>922.4519495451</ele>
        <time>2017-04-07T14:17:48Z</time>
      </trkpt>
      <trkpt lat="44.07756" lon="3.74598">
        <ele>923.96684169001</ele>
        <time>2017-04-07T14:17:55Z</time>
      </trkpt>
      <trkpt lat="44.07756" lon="3.74657">
        <ele>926.1078211189</ele>
        <time>2017-04-07T14:18:41Z</time>
      </trkpt>
      <trkpt lat="44.07758" lon="3.7468">
        <ele>928.39394572991</ele>
        <time>2017-04-07T14:19:01Z</time>
      </trkpt>
      <trkpt lat="44.07758" lon="3.74685">
        <ele>928.39394572991</ele>
        <time>2017-04-07T14:19:04Z</time>
      </trkpt>
      <trkpt lat="44.07762" lon="3.74729">
        <ele>931.80603494089</ele>
        <time>2017-04-07T14:19:58Z</time>
      </trkpt>
      <trkpt lat="44.07774" lon="3.7477">
        <ele>936.241061431</ele>
        <time>2017-04-07T14:20:53Z</time>
      </trkpt>
      <trkpt lat="44.07776" lon="3.74774">
        <ele>936.241061431</ele>
        <time>2017-04-07T14:20:53Z</time>
      </trkpt>
      <trkpt lat="44.07776" lon="3.74777">
        <ele>936.241061431</ele>
        <time>2017-04-07T14:20:56Z</time>
      </trkpt>
      <trkpt lat="44.0775" lon="3.74821">
        <ele>941.62966729494</ele>
        <time>2017-04-07T14:21:49Z</time>
      </trkpt>
      <trkpt lat="44.07735" lon="3.74842">
        <ele>947.21334253866</ele>
        <time>2017-04-07T14:22:19Z</time>
      </trkpt>
      <trkpt lat="44.07725" lon="3.74859">
        <ele>952.76449542294</ele>
        <time>2017-04-07T14:22:50Z</time>
      </trkpt>
      <trkpt lat="44.07722" lon="3.74863">
        <ele>952.76449542294</ele>
        <time>2017-04-07T14:22:51Z</time>
      </trkpt>
      <trkpt lat="44.0771" lon="3.74874">
        <ele>958.01489727008</ele>
        <time>2017-04-07T14:24:05Z</time>
      </trkpt>
      <trkpt lat="44.07706" lon="3.74874">
        <ele>958.01489727008</ele>
        <time>2017-04-07T14:24:05Z</time>
      </trkpt>
      <trkpt lat="44.07699" lon="3.74907">
        <ele>963.27911593174</ele>
        <time>2017-04-07T14:25:02Z</time>
      </trkpt>
      <trkpt lat="44.07694" lon="3.74916">
        <ele>963.27911593174</ele>
        <time>2017-04-07T14:25:32Z</time>
      </trkpt>
      <trkpt lat="44.07671" lon="3.74953">
        <ele>969.75670576659</ele>
        <time>2017-04-07T14:27:13Z</time>
      </trkpt>
      <trkpt lat="44.07666" lon="3.74956">
        <ele>969.75670576659</ele>
        <time>2017-04-07T14:27:13Z</time>
      </trkpt>
      <trkpt lat="44.07668" lon="3.74971">
        <ele>976.75455941636</ele>
        <time>2017-04-07T14:28:21Z</time>
      </trkpt>
      <trkpt lat="44.07665" lon="3.74983">
        <ele>984.47955085207</ele>
        <time>2017-04-07T14:29:53Z</time>
      </trkpt>
      <trkpt lat="44.07658" lon="3.7499">
        <ele>984.47955085207</ele>
        <time>2017-04-07T14:30:19Z</time>
      </trkpt>
      <trkpt lat="44.07654" lon="3.74994">
        <ele>991.96871888849</ele>
        <time>2017-04-07T14:30:24Z</time>
      </trkpt>
      <trkpt lat="44.07649" lon="3.75001">
        <ele>991.96871888849</ele>
        <time>2017-04-07T14:30:57Z</time>
      </trkpt>
      <trkpt lat="44.07643" lon="3.7501">
        <ele>999.45488294594</ele>
        <time>2017-04-07T14:31:13Z</time>
      </trkpt>
      <trkpt lat="44.0765" lon="3.75027">
        <ele>1006.6497134309</ele>
        <time>2017-04-07T14:31:37Z</time>
      </trkpt>
      <trkpt lat="44.07626" lon="3.75069">
        <ele>1015.3047903749</ele>
        <time>2017-04-07T14:33:11Z</time>
      </trkpt>
      <trkpt lat="44.0761" lon="3.7509">
        <ele>1023.6382781768</ele>
        <time>2017-04-07T14:33:43Z</time>
      </trkpt>
      <trkpt lat="44.07608" lon="3.7509">
        <ele>1023.6382781768</ele>
        <time>2017-04-07T14:33:46Z</time>
      </trkpt>
      <trkpt lat="44.07597" lon="3.75095">
        <ele>1031.4704616532</ele>
        <time>2017-04-07T14:34:04Z</time>
      </trkpt>
      <trkpt lat="44.07592" lon="3.75098">
        <ele>1031.4704616532</ele>
        <time>2017-04-07T14:34:21Z</time>
      </trkpt>
      <trkpt lat="44.07593" lon="3.75102">
        <ele>1031.4704616532</ele>
        <time>2017-04-07T14:34:56Z</time>
      </trkpt>
      <trkpt lat="44.07568" lon="3.75126">
        <ele>1040.9280119217</ele>
        <time>2017-04-07T14:36:07Z</time>
      </trkpt>
      <trkpt lat="44.07566" lon="3.7513">
        <ele>1040.9280119217</ele>
        <time>2017-04-07T14:36:07Z</time>
      </trkpt>
      <trkpt lat="44.07563" lon="3.75133">
        <ele>1040.9280119217</ele>
        <time>2017-04-07T14:36:15Z</time>
      </trkpt>
      <trkpt lat="44.07556" lon="3.75143">
        <ele>1049.8844878415</ele>
        <time>2017-04-07T14:36:50Z</time>
      </trkpt>
      <trkpt lat="44.07534" lon="3.75188">
        <ele>1059.4410748743</ele>
        <time>2017-04-07T14:38:01Z</time>
      </trkpt>
      <trkpt lat="44.07528" lon="3.75189">
        <ele>1059.4410748743</ele>
        <time>2017-04-07T14:38:11Z</time>
      </trkpt>
      <trkpt lat="44.07492" lon="3.75203">
        <ele>1069.2477900012</ele>
        <time>2017-04-07T14:39:00Z</time>
      </trkpt>
      <trkpt lat="44.07488" lon="3.75206">
        <ele>1069.2477900012</ele>
        <time>2017-04-07T14:39:00Z</time>
      </trkpt>
      <trkpt lat="44.07483" lon="3.7521">
        <ele>1078.3892822416</ele>
        <time>2017-04-07T14:39:15Z</time>
      </trkpt>
      <trkpt lat="44.07429" lon="3.7523">
        <ele>1088.426459766</ele>
        <time>2017-04-07T14:40:23Z</time>
      </trkpt>
      <trkpt lat="44.07415" lon="3.75239">
        <ele>1097.820461692</ele>
        <time>2017-04-07T14:40:34Z</time>
      </trkpt>
      <trkpt lat="44.07413" lon="3.7524">
        <ele>1097.820461692</ele>
        <time>2017-04-07T14:41:10Z</time>
      </trkpt>
      <trkpt lat="44.07393" lon="3.75254">
        <ele>1106.5889042364</ele>
        <time>2017-04-07T14:41:43Z</time>
      </trkpt>
      <trkpt lat="44.07389" lon="3.7526">
        <ele>1106.5889042364</ele>
        <time>2017-04-07T14:41:43Z</time>
      </trkpt>
      <trkpt lat="44.07373" lon="3.75258">
        <ele>1114.6350971725</ele>
        <time>2017-04-07T14:42:06Z</time>
      </trkpt>
      <trkpt lat="44.07332" lon="3.75255">
        <ele>1122.1890447366</ele>
        <time>2017-04-07T14:43:00Z</time>
      </trkpt>
      <trkpt lat="44.0731" lon="3.75268">
        <ele>1129.2784052145</ele>
        <time>2017-04-07T14:43:25Z</time>
      </trkpt>
      <trkpt lat="44.07306" lon="3.75268">
        <ele>1129.2784052145</ele>
        <time>2017-04-07T14:43:25Z</time>
      </trkpt>
      <trkpt lat="44.07287" lon="3.75281">
        <ele>1136.4494101844</ele>
        <time>2017-04-07T14:44:05Z</time>
      </trkpt>
      <trkpt lat="44.07281" lon="3.75287">
        <ele>1136.4494101844</ele>
        <time>2017-04-07T14:44:52Z</time>
      </trkpt>
      <trkpt lat="44.07256" lon="3.75298">
        <ele>1144.0066674246</ele>
        <time>2017-04-07T14:45:52Z</time>
      </trkpt>
      <trkpt lat="44.07259" lon="3.75297">
        <ele>1144.0066674246</ele>
        <time>2017-04-07T14:45:52Z</time>
      </trkpt>
      <trkpt lat="44.0726" lon="3.75296">
        <ele>1144.0066674246</ele>
        <time>2017-04-07T14:46:04Z</time>
      </trkpt>
      <trkpt lat="44.07259" lon="3.75306">
        <ele>1150.7330379166</ele>
        <time>2017-04-07T14:46:28Z</time>
      </trkpt>
      <trkpt lat="44.07254" lon="3.75301">
        <ele>1150.7330379166</ele>
        <time>2017-04-07T14:47:00Z</time>
      </trkpt>
      <trkpt lat="44.07233" lon="3.75308">
        <ele>1156.7573405674</ele>
        <time>2017-04-07T14:47:13Z</time>
      </trkpt>
      <trkpt lat="44.07231" lon="3.75309">
        <ele>1156.7573405674</ele>
        <time>2017-04-07T14:47:16Z</time>
      </trkpt>
      <trkpt lat="44.0722" lon="3.75315">
        <ele>1161.7113493272</ele>
        <time>2017-04-07T14:47:31Z</time>
      </trkpt>
      <trkpt lat="44.07216" lon="3.75317">
        <ele>1161.7113493272</ele>
        <time>2017-04-07T14:47:36Z</time>
      </trkpt>
      <trkpt lat="44.07212" lon="3.7532">
        <ele>1161.7113493272</ele>
        <time>2017-04-07T14:47:41Z</time>
      </trkpt>
      <trkpt lat="44.07207" lon="3.75322">
        <ele>1165.3149322337</ele>
        <time>2017-04-07T14:47:46Z</time>
      </trkpt>
      <trkpt lat="44.07202" lon="3.75323">
        <ele>1165.3149322337</ele>
        <time>2017-04-07T14:47:51Z</time>
      </trkpt>
      <trkpt lat="44.07198" lon="3.75324">
        <ele>1167.7017849575</ele>
        <time>2017-04-07T14:47:56Z</time>
      </trkpt>
      <trkpt lat="44.07193" lon="3.75326">
        <ele>1167.7017849575</ele>
        <time>2017-04-07T14:48:01Z</time>
      </trkpt>
      <trkpt lat="44.07188" lon="3.75327">
        <ele>1168.7689334561</ele>
        <time>2017-04-07T14:48:06Z</time>
      </trkpt>
      <trkpt lat="44.07182" lon="3.75328">
        <ele>1168.7689334561</ele>
        <time>2017-04-07T14:48:11Z</time>
      </trkpt>
      <trkpt lat="44.07138" lon="3.75337">
        <ele>1166.8108853018</ele>
        <time>2017-04-07T14:49:00Z</time>
      </trkpt>
      <trkpt lat="44.07105" lon="3.75355">
        <ele>1163.4697923057</ele>
        <time>2017-04-07T14:49:26Z</time>
      </trkpt>
      <trkpt lat="44.07086" lon="3.75361">
        <ele>1159.536206982</ele>
        <time>2017-04-07T14:49:42Z</time>
      </trkpt>
      <trkpt lat="44.07065" lon="3.75375">
        <ele>1155.1390410522</ele>
        <time>2017-04-07T14:50:03Z</time>
      </trkpt>
      <trkpt lat="44.07062" lon="3.75376">
        <ele>1155.1390410522</ele>
        <time>2017-04-07T14:50:06Z</time>
      </trkpt>
      <trkpt lat="44.07021" lon="3.75397">
        <ele>1149.7937215251</ele>
        <time>2017-04-07T14:50:56Z</time>
      </trkpt>
      <trkpt lat="44.07012" lon="3.75401">
        <ele>1149.7937215251</ele>
        <time>2017-04-07T14:50:56Z</time>
      </trkpt>
      <trkpt lat="44.07011" lon="3.75403">
        <ele>1144.3652100564</ele>
        <time>2017-04-07T14:50:57Z</time>
      </trkpt>
      <trkpt lat="44.06975" lon="3.75423">
        <ele>1138.4876459325</ele>
        <time>2017-04-07T14:51:36Z</time>
      </trkpt>
      <trkpt lat="44.06961" lon="3.75434">
        <ele>1132.6876766776</ele>
        <time>2017-04-07T14:51:55Z</time>
      </trkpt>
      <trkpt lat="44.06926" lon="3.75455">
        <ele>1127.4382663044</ele>
        <time>2017-04-07T14:52:26Z</time>
      </trkpt>
      <trkpt lat="44.06905" lon="3.75441">
        <ele>1124.7176505396</ele>
        <time>2017-04-07T14:53:11Z</time>
      </trkpt>
      <trkpt lat="44.06865" lon="3.75402">
        <ele>1122.056656753</ele>
        <time>2017-04-07T14:54:03Z</time>
      </trkpt>
      <trkpt lat="44.06862" lon="3.75403">
        <ele>1122.056656753</ele>
        <time>2017-04-07T14:54:06Z</time>
      </trkpt>
      <trkpt lat="44.06774" lon="3.75408">
        <ele>1118.305283785</ele>
        <time>2017-04-07T14:56:08Z</time>
      </trkpt>
      <trkpt lat="44.06766" lon="3.75406">
        <ele>1118.305283785</ele>
        <time>2017-04-07T14:56:08Z</time>
      </trkpt>
      <trkpt lat="44.06739" lon="3.75416">
        <ele>1114.1730782653</ele>
        <time>2017-04-07T14:56:37Z</time>
      </trkpt>
      <trkpt lat="44.06725" lon="3.75434">
        <ele>1110.145013954</ele>
        <time>2017-04-07T14:57:00Z</time>
      </trkpt>
      <trkpt lat="44.06722" lon="3.75442">
        <ele>1110.145013954</ele>
        <time>2017-04-07T14:57:07Z</time>
      </trkpt>
      <trkpt lat="44.06717" lon="3.75453">
        <ele>1105.7472225718</ele>
        <time>2017-04-07T14:57:33Z</time>
      </trkpt>
      <trkpt lat="44.06704" lon="3.7547">
        <ele>1101.2616000946</ele>
        <time>2017-04-07T14:57:49Z</time>
      </trkpt>
      <trkpt lat="44.06703" lon="3.75475">
        <ele>1101.2616000946</ele>
        <time>2017-04-07T14:57:49Z</time>
      </trkpt>
      <trkpt lat="44.06697" lon="3.75485">
        <ele>1096.386884331</ele>
        <time>2017-04-07T14:58:03Z</time>
      </trkpt>
      <trkpt lat="44.06687" lon="3.75502">
        <ele>1091.3343280299</ele>
        <time>2017-04-07T14:58:34Z</time>
      </trkpt>
      <trkpt lat="44.06654" lon="3.7556">
        <ele>1085.3627351018</ele>
        <time>2017-04-07T14:59:26Z</time>
      </trkpt>
      <trkpt lat="44.0665" lon="3.75568">
        <ele>1085.3627351018</ele>
        <time>2017-04-07T14:59:30Z</time>
      </trkpt>
      <trkpt lat="44.06638" lon="3.75587">
        <ele>1079.4877204703</ele>
        <time>2017-04-07T14:59:53Z</time>
      </trkpt>
      <trkpt lat="44.06636" lon="3.75591">
        <ele>1079.4877204703</ele>
        <time>2017-04-07T14:59:53Z</time>
      </trkpt>
      <trkpt lat="44.06614" lon="3.7564">
        <ele>1072.8911184043</ele>
        <time>2017-04-07T15:00:39Z</time>
      </trkpt>
      <trkpt lat="44.06615" lon="3.7565">
        <ele>1072.8911184043</ele>
        <time>2017-04-07T15:00:45Z</time>
      </trkpt>
      <trkpt lat="44.06598" lon="3.75705">
        <ele>1065.3637439041</ele>
        <time>2017-04-07T15:01:32Z</time>
      </trkpt>
      <trkpt lat="44.06598" lon="3.75708">
        <ele>1065.3637439041</ele>
        <time>2017-04-07T15:01:32Z</time>
      </trkpt>
      <trkpt lat="44.06597" lon="3.75713">
        <ele>1065.3637439041</ele>
        <time>2017-04-07T15:01:36Z</time>
      </trkpt>
      <trkpt lat="44.06597" lon="3.75714">
        <ele>1065.3637439041</ele>
        <time>2017-04-07T15:01:41Z</time>
      </trkpt>
      <trkpt lat="44.066" lon="3.75718">
        <ele>1058.0250128785</ele>
        <time>2017-04-07T15:02:16Z</time>
      </trkpt>
      <trkpt lat="44.06598" lon="3.75722">
        <ele>1058.0250128785</ele>
        <time>2017-04-07T15:02:21Z</time>
      </trkpt>
      <trkpt lat="44.06598" lon="3.75721">
        <ele>1058.0250128785</ele>
        <time>2017-04-07T15:02:26Z</time>
      </trkpt>
      <trkpt lat="44.06595" lon="3.75736">
        <ele>1051.2046286936</ele>
        <time>2017-04-07T15:03:41Z</time>
      </trkpt>
      <trkpt lat="44.06589" lon="3.75768">
        <ele>1044.9031647668</ele>
        <time>2017-04-07T15:04:14Z</time>
      </trkpt>
      <trkpt lat="44.06572" lon="3.75859">
        <ele>1038.3118400383</ele>
        <time>2017-04-07T15:05:31Z</time>
      </trkpt>
      <trkpt lat="44.06568" lon="3.75875">
        <ele>1032.1511935665</ele>
        <time>2017-04-07T15:05:31Z</time>
      </trkpt>
      <trkpt lat="44.06566" lon="3.7591">
        <ele>1026.1788855907</ele>
        <time>2017-04-07T15:06:00Z</time>
      </trkpt>
      <trkpt lat="44.06556" lon="3.75964">
        <ele>1020.1546024499</ele>
        <time>2017-04-07T15:06:36Z</time>
      </trkpt>
      <trkpt lat="44.06553" lon="3.75996">
        <ele>1014.3161554685</ele>
        <time>2017-04-07T15:06:58Z</time>
      </trkpt>
      <trkpt lat="44.06542" lon="3.7602">
        <ele>1008.8249012738</ele>
        <time>2017-04-07T15:07:23Z</time>
      </trkpt>
      <trkpt lat="44.06537" lon="3.76032">
        <ele>1003.943853033</ele>
        <time>2017-04-07T15:07:23Z</time>
      </trkpt>
      <trkpt lat="44.0651" lon="3.76075">
        <ele>999.13600325144</ele>
        <time>2017-04-07T15:07:56Z</time>
      </trkpt>
      <trkpt lat="44.06498" lon="3.76085">
        <ele>994.45044306643</ele>
        <time>2017-04-07T15:08:12Z</time>
      </trkpt>
      <trkpt lat="44.0646" lon="3.76128">
        <ele>987.66902244878</ele>
        <time>2017-04-07T15:09:17Z</time>
      </trkpt>
      <trkpt lat="44.06448" lon="3.76138">
        <ele>981.26677883654</ele>
        <time>2017-04-07T15:09:34Z</time>
      </trkpt>
      <trkpt lat="44.06432" lon="3.76145">
        <ele>975.22938361684</ele>
        <time>2017-04-07T15:09:34Z</time>
      </trkpt>
      <trkpt lat="44.06416" lon="3.76153">
        <ele>969.58507821084</ele>
        <time>2017-04-07T15:09:51Z</time>
      </trkpt>
      <trkpt lat="44.06399" lon="3.7616">
        <ele>964.30060701889</ele>
        <time>2017-04-07T15:10:06Z</time>
      </trkpt>
      <trkpt lat="44.06372" lon="3.76174">
        <ele>959.73259453501</ele>
        <time>2017-04-07T15:10:31Z</time>
      </trkpt>
      <trkpt lat="44.06366" lon="3.76177">
        <ele>959.73259453501</ele>
        <time>2017-04-07T15:10:36Z</time>
      </trkpt>
      <trkpt lat="44.06337" lon="3.76196">
        <ele>954.69566131167</ele>
        <time>2017-04-07T15:11:08Z</time>
      </trkpt>
      <trkpt lat="44.06317" lon="3.76204">
        <ele>950.19624153629</ele>
        <time>2017-04-07T15:11:21Z</time>
      </trkpt>
      <trkpt lat="44.06317" lon="3.76207">
        <ele>950.19624153629</ele>
        <time>2017-04-07T15:11:26Z</time>
      </trkpt>
      <trkpt lat="44.06313" lon="3.76215">
        <ele>946.44420145344</ele>
        <time>2017-04-07T15:11:56Z</time>
      </trkpt>
      <trkpt lat="44.06309" lon="3.76218">
        <ele>946.44420145344</ele>
        <time>2017-04-07T15:12:01Z</time>
      </trkpt>
      <trkpt lat="44.06304" lon="3.7622">
        <ele>943.38636566214</ele>
        <time>2017-04-07T15:12:06Z</time>
      </trkpt>
      <trkpt lat="44.06299" lon="3.76221">
        <ele>943.38636566214</ele>
        <time>2017-04-07T15:12:11Z</time>
      </trkpt>
      <trkpt lat="44.06292" lon="3.76224">
        <ele>940.88454723159</ele>
        <time>2017-04-07T15:12:16Z</time>
      </trkpt>
      <trkpt lat="44.06285" lon="3.76225">
        <ele>940.88454723159</ele>
        <time>2017-04-07T15:12:21Z</time>
      </trkpt>
      <trkpt lat="44.06278" lon="3.76226">
        <ele>938.765453234</ele>
        <time>2017-04-07T15:12:26Z</time>
      </trkpt>
      <trkpt lat="44.06272" lon="3.7623">
        <ele>938.765453234</ele>
        <time>2017-04-07T15:12:31Z</time>
      </trkpt>
      <trkpt lat="44.06267" lon="3.76233">
        <ele>937.06878153513</ele>
        <time>2017-04-07T15:12:36Z</time>
      </trkpt>
      <trkpt lat="44.06246" lon="3.76247">
        <ele>935.71446350032</ele>
        <time>2017-04-07T15:13:02Z</time>
      </trkpt>
      <trkpt lat="44.06185" lon="3.76284">
        <ele>934.30997625024</ele>
        <time>2017-04-07T15:14:09Z</time>
      </trkpt>
      <trkpt lat="44.06177" lon="3.7629">
        <ele>933.29850913353</ele>
        <time>2017-04-07T15:14:09Z</time>
      </trkpt>
      <trkpt lat="44.06122" lon="3.76364">
        <ele>933.017297274</ele>
        <time>2017-04-07T15:15:18Z</time>
      </trkpt>
      <trkpt lat="44.06077" lon="3.76418">
        <ele>933.70450579525</ele>
        <time>2017-04-07T15:16:03Z</time>
      </trkpt>
      <trkpt lat="44.06044" lon="3.76456">
        <ele>934.69886477752</ele>
        <time>2017-04-07T15:16:36Z</time>
      </trkpt>
      <trkpt lat="44.06037" lon="3.76468">
        <ele>935.91993527198</ele>
        <time>2017-04-07T15:16:37Z</time>
      </trkpt>
      <trkpt lat="44.0603" lon="3.7648">
        <ele>937.22045061617</ele>
        <time>2017-04-07T15:16:46Z</time>
      </trkpt>
      <trkpt lat="44.06028" lon="3.76487">
        <ele>937.22045061617</ele>
        <time>2017-04-07T15:16:51Z</time>
      </trkpt>
      <trkpt lat="44.06025" lon="3.76495">
        <ele>938.5069764754</ele>
        <time>2017-04-07T15:16:56Z</time>
      </trkpt>
      <trkpt lat="44.06022" lon="3.765">
        <ele>938.5069764754</ele>
        <time>2017-04-07T15:17:04Z</time>
      </trkpt>
      <trkpt lat="44.05959" lon="3.76598">
        <ele>939.23187453737</ele>
        <time>2017-04-07T15:18:24Z</time>
      </trkpt>
      <trkpt lat="44.05942" lon="3.76624">
        <ele>940.41698050481</ele>
        <time>2017-04-07T15:18:36Z</time>
      </trkpt>
      <trkpt lat="44.05937" lon="3.76633">
        <ele>940.41698050481</ele>
        <time>2017-04-07T15:18:41Z</time>
      </trkpt>
      <trkpt lat="44.05921" lon="3.76665">
        <ele>941.99912717702</ele>
        <time>2017-04-07T15:19:07Z</time>
      </trkpt>
      <trkpt lat="44.05915" lon="3.76674">
        <ele>943.68826160399</ele>
        <time>2017-04-07T15:19:07Z</time>
      </trkpt>
      <trkpt lat="44.05846" lon="3.76761">
        <ele>945.08583682064</ele>
        <time>2017-04-07T15:20:25Z</time>
      </trkpt>
      <trkpt lat="44.05836" lon="3.76766">
        <ele>946.55859836583</ele>
        <time>2017-04-07T15:20:25Z</time>
      </trkpt>
      <trkpt lat="44.05753" lon="3.76872">
        <ele>946.8899967033</ele>
        <time>2017-04-07T15:22:06Z</time>
      </trkpt>
      <trkpt lat="44.05719" lon="3.76901">
        <ele>946.87300854004</ele>
        <time>2017-04-07T15:22:39Z</time>
      </trkpt>
      <trkpt lat="44.05691" lon="3.76908">
        <ele>946.55189698838</ele>
        <time>2017-04-07T15:23:11Z</time>
      </trkpt>
      <trkpt lat="44.05685" lon="3.76909">
        <ele>946.55189698838</ele>
        <time>2017-04-07T15:23:11Z</time>
      </trkpt>
      <trkpt lat="44.05674" lon="3.76912">
        <ele>946.05529751076</ele>
        <time>2017-04-07T15:23:30Z</time>
      </trkpt>
      <trkpt lat="44.05636" lon="3.76911">
        <ele>945.0420407713</ele>
        <time>2017-04-07T15:24:08Z</time>
      </trkpt>
      <trkpt lat="44.05626" lon="3.76913">
        <ele>944.10567822635</ele>
        <time>2017-04-07T15:24:08Z</time>
      </trkpt>
      <trkpt lat="44.05594" lon="3.76925">
        <ele>942.96040564148</ele>
        <time>2017-04-07T15:24:28Z</time>
      </trkpt>
      <trkpt lat="44.05571" lon="3.76917">
        <ele>941.54405734718</ele>
        <time>2017-04-07T15:25:05Z</time>
      </trkpt>
      <trkpt lat="44.05572" lon="3.76922">
        <ele>941.54405734718</ele>
        <time>2017-04-07T15:25:33Z</time>
      </trkpt>
      <trkpt lat="44.05577" lon="3.7692">
        <ele>940.14595672735</ele>
        <time>2017-04-07T15:25:33Z</time>
      </trkpt>
      <trkpt lat="44.05583" lon="3.76908">
        <ele>939.07764358639</ele>
        <time>2017-04-07T15:26:19Z</time>
      </trkpt>
      <trkpt lat="44.05582" lon="3.76903">
        <ele>939.07764358639</ele>
        <time>2017-04-07T15:26:19Z</time>
      </trkpt>
      <trkpt lat="44.05581" lon="3.76888">
        <ele>938.19479363595</ele>
        <time>2017-04-07T15:26:36Z</time>
      </trkpt>
      <trkpt lat="44.05567" lon="3.76852">
        <ele>937.40667052695</ele>
        <time>2017-04-07T15:27:08Z</time>
      </trkpt>
      <trkpt lat="44.05563" lon="3.76841">
        <ele>936.78772679652</ele>
        <time>2017-04-07T15:27:09Z</time>
      </trkpt>
      <trkpt lat="44.05554" lon="3.7682">
        <ele>936.40673335745</ele>
        <time>2017-04-07T15:27:33Z</time>
      </trkpt>
      <trkpt lat="44.05549" lon="3.76812">
        <ele>936.40673335745</ele>
        <time>2017-04-07T15:27:33Z</time>
      </trkpt>
      <trkpt lat="44.0554" lon="3.76802">
        <ele>936.16847789358</ele>
        <time>2017-04-07T15:27:58Z</time>
      </trkpt>
      <trkpt lat="44.05553" lon="3.76795">
        <ele>936.54663185901</ele>
        <time>2017-04-07T15:29:17Z</time>
      </trkpt>
      <trkpt lat="44.05598" lon="3.76833">
        <ele>937.51744273189</ele>
        <time>2017-04-07T15:30:05Z</time>
      </trkpt>
      <trkpt lat="44.05633" lon="3.76822">
        <ele>938.72604365482</ele>
        <time>2017-04-07T15:30:33Z</time>
      </trkpt>
      <trkpt lat="44.05636" lon="3.7682">
        <ele>938.72604365482</ele>
        <time>2017-04-07T15:30:36Z</time>
      </trkpt>
      <trkpt lat="44.05693" lon="3.76774">
        <ele>940.07381066912</ele>
        <time>2017-04-07T15:31:46Z</time>
      </trkpt>
      <trkpt lat="44.05693" lon="3.7676">
        <ele>941.44042211555</ele>
        <time>2017-04-07T15:31:46Z</time>
      </trkpt>
      <trkpt lat="44.05712" lon="3.76708">
        <ele>942.570507306</ele>
        <time>2017-04-07T15:32:19Z</time>
      </trkpt>
      <trkpt lat="44.05715" lon="3.76696">
        <ele>943.40133276426</ele>
        <time>2017-04-07T15:32:19Z</time>
      </trkpt>
      <trkpt lat="44.05761" lon="3.76627">
        <ele>942.65094892631</ele>
        <time>2017-04-07T15:33:09Z</time>
      </trkpt>
      <trkpt lat="44.05789" lon="3.766">
        <ele>941.24031209178</ele>
        <time>2017-04-07T15:33:41Z</time>
      </trkpt>
      <trkpt lat="44.05817" lon="3.76578">
        <ele>938.85754089181</ele>
        <time>2017-04-07T15:34:08Z</time>
      </trkpt>
      <trkpt lat="44.05834" lon="3.76539">
        <ele>936.19659222945</ele>
        <time>2017-04-07T15:34:31Z</time>
      </trkpt>
      <trkpt lat="44.05847" lon="3.76511">
        <ele>933.1376564036</ele>
        <time>2017-04-07T15:34:52Z</time>
      </trkpt>
      <trkpt lat="44.05851" lon="3.76505">
        <ele>933.1376564036</ele>
        <time>2017-04-07T15:34:52Z</time>
      </trkpt>
      <trkpt lat="44.05853" lon="3.76498">
        <ele>929.98895599564</ele>
        <time>2017-04-07T15:34:57Z</time>
      </trkpt>
      <trkpt lat="44.05936" lon="3.76322">
        <ele>924.47130406012</ele>
        <time>2017-04-07T15:37:06Z</time>
      </trkpt>
      <trkpt lat="44.05939" lon="3.76324">
        <ele>924.47130406012</ele>
        <time>2017-04-07T15:37:06Z</time>
      </trkpt>
      <trkpt lat="44.05947" lon="3.76296">
        <ele>919.3506688752</ele>
        <time>2017-04-07T15:37:31Z</time>
      </trkpt>
      <trkpt lat="44.05946" lon="3.76295">
        <ele>919.3506688752</ele>
        <time>2017-04-07T15:37:33Z</time>
      </trkpt>
      <trkpt lat="44.05923" lon="3.76288">
        <ele>914.78214990141</ele>
        <time>2017-04-07T15:37:46Z</time>
      </trkpt>
      <trkpt lat="44.05916" lon="3.76287">
        <ele>914.78214990141</ele>
        <time>2017-04-07T15:37:51Z</time>
      </trkpt>
      <trkpt lat="44.05914" lon="3.76284">
        <ele>910.76384444428</ele>
        <time>2017-04-07T15:37:56Z</time>
      </trkpt>
      <trkpt lat="44.05913" lon="3.76284">
        <ele>910.76384444428</ele>
        <time>2017-04-07T15:38:01Z</time>
      </trkpt>
      <trkpt lat="44.05915" lon="3.76282">
        <ele>910.76384444428</ele>
        <time>2017-04-07T15:38:06Z</time>
      </trkpt>
      <trkpt lat="44.05916" lon="3.76282">
        <ele>910.76384444428</ele>
        <time>2017-04-07T15:38:11Z</time>
      </trkpt>
      <trkpt lat="44.05915" lon="3.76272">
        <ele>907.06188575835</ele>
        <time>2017-04-07T15:38:16Z</time>
      </trkpt>
      <trkpt lat="44.0591" lon="3.76266">
        <ele>907.06188575835</ele>
        <time>2017-04-07T15:38:21Z</time>
      </trkpt>
      <trkpt lat="44.05909" lon="3.76266">
        <ele>907.06188575835</ele>
        <time>2017-04-07T15:38:26Z</time>
      </trkpt>
      <trkpt lat="44.05905" lon="3.76276">
        <ele>903.74691182981</ele>
        <time>2017-04-07T15:38:41Z</time>
      </trkpt>
      <trkpt lat="44.05901" lon="3.76283">
        <ele>903.74691182981</ele>
        <time>2017-04-07T15:38:46Z</time>
      </trkpt>
      <trkpt lat="44.05901" lon="3.76291">
        <ele>900.9120769256</ele>
        <time>2017-04-07T15:38:51Z</time>
      </trkpt>
      <trkpt lat="44.05897" lon="3.76295">
        <ele>900.9120769256</ele>
        <time>2017-04-07T15:39:00Z</time>
      </trkpt>
      <trkpt lat="44.05838" lon="3.76349">
        <ele>898.90169863211</ele>
        <time>2017-04-07T15:40:02Z</time>
      </trkpt>
      <trkpt lat="44.05779" lon="3.76397">
        <ele>897.47039813711</ele>
        <time>2017-04-07T15:40:43Z</time>
      </trkpt>
      <trkpt lat="44.05777" lon="3.76398">
        <ele>897.47039813711</ele>
        <time>2017-04-07T15:40:52Z</time>
      </trkpt>
      <trkpt lat="44.05768" lon="3.76404">
        <ele>896.31708082126</ele>
        <time>2017-04-07T15:40:52Z</time>
      </trkpt>
      <trkpt lat="44.05728" lon="3.76413">
        <ele>894.7440061399</ele>
        <time>2017-04-07T15:41:12Z</time>
      </trkpt>
      <trkpt lat="44.05713" lon="3.76358">
        <ele>892.45167200487</ele>
        <time>2017-04-07T15:41:59Z</time>
      </trkpt>
      <trkpt lat="44.0571" lon="3.76345">
        <ele>890.23095668891</ele>
        <time>2017-04-07T15:41:59Z</time>
      </trkpt>
      <trkpt lat="44.05654" lon="3.76323">
        <ele>887.86324345874</ele>
        <time>2017-04-07T15:42:46Z</time>
      </trkpt>
      <trkpt lat="44.0565" lon="3.76322">
        <ele>887.86324345874</ele>
        <time>2017-04-07T15:42:51Z</time>
      </trkpt>
      <trkpt lat="44.05576" lon="3.76304">
        <ele>884.39694106908</ele>
        <time>2017-04-07T15:43:53Z</time>
      </trkpt>
      <trkpt lat="44.05566" lon="3.763">
        <ele>880.92769084501</ele>
        <time>2017-04-07T15:43:56Z</time>
      </trkpt>
      <trkpt lat="44.05507" lon="3.76294">
        <ele>876.74123735014</ele>
        <time>2017-04-07T15:44:43Z</time>
      </trkpt>
      <trkpt lat="44.05491" lon="3.76286">
        <ele>872.69087494877</ele>
        <time>2017-04-07T15:45:04Z</time>
      </trkpt>
      <trkpt lat="44.05486" lon="3.76283">
        <ele>872.69087494877</ele>
        <time>2017-04-07T15:45:04Z</time>
      </trkpt>
      <trkpt lat="44.0547" lon="3.76268">
        <ele>868.57235447367</ele>
        <time>2017-04-07T15:45:29Z</time>
      </trkpt>
      <trkpt lat="44.05443" lon="3.76165">
        <ele>864.02356178916</ele>
        <time>2017-04-07T15:46:29Z</time>
      </trkpt>
      <trkpt lat="44.05428" lon="3.7616">
        <ele>859.87735032896</ele>
        <time>2017-04-07T15:46:42Z</time>
      </trkpt>
      <trkpt lat="44.05406" lon="3.76154">
        <ele>856.03944353712</ele>
        <time>2017-04-07T15:46:53Z</time>
      </trkpt>
      <trkpt lat="44.05403" lon="3.76152">
        <ele>856.03944353712</ele>
        <time>2017-04-07T15:46:56Z</time>
      </trkpt>
      <trkpt lat="44.05329" lon="3.76104">
        <ele>851.4415050905</ele>
        <time>2017-04-07T15:48:10Z</time>
      </trkpt>
      <trkpt lat="44.05319" lon="3.76057">
        <ele>846.96908055415</ele>
        <time>2017-04-07T15:48:41Z</time>
      </trkpt>
      <trkpt lat="44.05315" lon="3.76025">
        <ele>842.83686145964</ele>
        <time>2017-04-07T15:49:03Z</time>
      </trkpt>
      <trkpt lat="44.05314" lon="3.76019">
        <ele>842.83686145964</ele>
        <time>2017-04-07T15:49:03Z</time>
      </trkpt>
      <trkpt lat="44.05306" lon="3.75946">
        <ele>839.0841010558</ele>
        <time>2017-04-07T15:50:00Z</time>
      </trkpt>
      <trkpt lat="44.05288" lon="3.7594">
        <ele>835.78914262605</ele>
        <time>2017-04-07T15:50:00Z</time>
      </trkpt>
      <trkpt lat="44.05258" lon="3.75928">
        <ele>832.47547077408</ele>
        <time>2017-04-07T15:50:32Z</time>
      </trkpt>
      <trkpt lat="44.05216" lon="3.75923">
        <ele>828.85995320417</ele>
        <time>2017-04-07T15:50:59Z</time>
      </trkpt>
      <trkpt lat="44.05214" lon="3.75922">
        <ele>828.85995320417</ele>
        <time>2017-04-07T15:51:01Z</time>
      </trkpt>
      <trkpt lat="44.05192" lon="3.75921">
        <ele>825.48793208471</ele>
        <time>2017-04-07T15:51:23Z</time>
      </trkpt>
      <trkpt lat="44.05183" lon="3.75919">
        <ele>822.38824937437</ele>
        <time>2017-04-07T15:51:28Z</time>
      </trkpt>
      <trkpt lat="44.05142" lon="3.75898">
        <ele>819.24081200485</ele>
        <time>2017-04-07T15:52:04Z</time>
      </trkpt>
      <trkpt lat="44.05139" lon="3.75895">
        <ele>819.24081200485</ele>
        <time>2017-04-07T15:52:06Z</time>
      </trkpt>
      <trkpt lat="44.05132" lon="3.75893">
        <ele>816.41190616874</ele>
        <time>2017-04-07T15:52:11Z</time>
      </trkpt>
      <trkpt lat="44.05117" lon="3.75887">
        <ele>813.80751121117</ele>
        <time>2017-04-07T15:52:21Z</time>
      </trkpt>
      <trkpt lat="44.05109" lon="3.75886">
        <ele>813.80751121117</ele>
        <time>2017-04-07T15:52:26Z</time>
      </trkpt>
      <trkpt lat="44.05098" lon="3.75883">
        <ele>811.33971950368</ele>
        <time>2017-04-07T15:52:36Z</time>
      </trkpt>
      <trkpt lat="44.05093" lon="3.75882">
        <ele>811.33971950368</ele>
        <time>2017-04-07T15:52:41Z</time>
      </trkpt>
      <trkpt lat="44.05076" lon="3.7588">
        <ele>809.01301072925</ele>
        <time>2017-04-07T15:52:51Z</time>
      </trkpt>
      <trkpt lat="44.0507" lon="3.7588">
        <ele>809.01301072925</ele>
        <time>2017-04-07T15:52:56Z</time>
      </trkpt>
      <trkpt lat="44.05051" lon="3.75877">
        <ele>806.67247467897</ele>
        <time>2017-04-07T15:53:11Z</time>
      </trkpt>
      <trkpt lat="44.05007" lon="3.75859">
        <ele>804.13125459433</ele>
        <time>2017-04-07T15:53:59Z</time>
      </trkpt>
      <trkpt lat="44.04975" lon="3.75841">
        <ele>801.14460599201</ele>
        <time>2017-04-07T15:54:30Z</time>
      </trkpt>
      <trkpt lat="44.04968" lon="3.75853">
        <ele>798.74066823422</ele>
        <time>2017-04-07T15:54:56Z</time>
      </trkpt>
      <trkpt lat="44.04964" lon="3.75853">
        <ele>798.74066823422</ele>
        <time>2017-04-07T15:55:04Z</time>
      </trkpt>
      <trkpt lat="44.04937" lon="3.75838">
        <ele>796.61655007702</ele>
        <time>2017-04-07T15:55:38Z</time>
      </trkpt>
      <trkpt lat="44.04927" lon="3.75842">
        <ele>794.82218888722</ele>
        <time>2017-04-07T15:55:38Z</time>
      </trkpt>
      <trkpt lat="44.04913" lon="3.75837">
        <ele>793.15785858571</ele>
        <time>2017-04-07T15:55:51Z</time>
      </trkpt>
      <trkpt lat="44.04909" lon="3.75837">
        <ele>793.15785858571</ele>
        <time>2017-04-07T15:55:56Z</time>
      </trkpt>
      <trkpt lat="44.04905" lon="3.75834">
        <ele>793.15785858571</ele>
        <time>2017-04-07T15:56:01Z</time>
      </trkpt>
      <trkpt lat="44.04901" lon="3.75825">
        <ele>791.68306123145</ele>
        <time>2017-04-07T15:56:06Z</time>
      </trkpt>
      <trkpt lat="44.04899" lon="3.7582">
        <ele>791.68306123145</ele>
        <time>2017-04-07T15:56:11Z</time>
      </trkpt>
      <trkpt lat="44.04896" lon="3.75815">
        <ele>790.22176448361</ele>
        <time>2017-04-07T15:56:16Z</time>
      </trkpt>
      <trkpt lat="44.04896" lon="3.75814">
        <ele>790.22176448361</ele>
        <time>2017-04-07T15:56:21Z</time>
      </trkpt>
      <trkpt lat="44.04895" lon="3.75802">
        <ele>789.56192479283</ele>
        <time>2017-04-07T15:57:13Z</time>
      </trkpt>
      <trkpt lat="44.04889" lon="3.75795">
        <ele>789.56192479283</ele>
        <time>2017-04-07T15:57:26Z</time>
      </trkpt>
      <trkpt lat="44.04885" lon="3.75786">
        <ele>788.93258929288</ele>
        <time>2017-04-07T15:57:31Z</time>
      </trkpt>
      <trkpt lat="44.04882" lon="3.7578">
        <ele>788.93258929288</ele>
        <time>2017-04-07T15:57:36Z</time>
      </trkpt>
      <trkpt lat="44.04876" lon="3.75772">
        <ele>788.45519330094</ele>
        <time>2017-04-07T15:57:41Z</time>
      </trkpt>
      <trkpt lat="44.04872" lon="3.75766">
        <ele>788.45519330094</ele>
        <time>2017-04-07T15:57:46Z</time>
      </trkpt>
      <trkpt lat="44.04868" lon="3.75758">
        <ele>788.12654977305</ele>
        <time>2017-04-07T15:57:51Z</time>
      </trkpt>
      <trkpt lat="44.04866" lon="3.75751">
        <ele>788.12654977305</ele>
        <time>2017-04-07T15:57:56Z</time>
      </trkpt>
      <trkpt lat="44.04862" lon="3.75742">
        <ele>787.85685363238</ele>
        <time>2017-04-07T15:58:01Z</time>
      </trkpt>
      <trkpt lat="44.04861" lon="3.7574">
        <ele>787.85685363238</ele>
        <time>2017-04-07T15:58:06Z</time>
      </trkpt>
      <trkpt lat="44.0486" lon="3.75736">
        <ele>787.85685363238</ele>
        <time>2017-04-07T15:58:11Z</time>
      </trkpt>
      <trkpt lat="44.0486" lon="3.75727">
        <ele>787.51954753494</ele>
        <time>2017-04-07T15:58:18Z</time>
      </trkpt>
      <trkpt lat="44.04875" lon="3.75679">
        <ele>786.26265812189</ele>
        <time>2017-04-07T15:58:56Z</time>
      </trkpt>
      <trkpt lat="44.04876" lon="3.75679">
        <ele>786.26265812189</ele>
        <time>2017-04-07T15:59:41Z</time>
      </trkpt>
      <trkpt lat="44.04876" lon="3.75679">
        <ele>786.26265812189</ele>
        <time>2017-04-07T15:59:46Z</time>
      </trkpt>
      <trkpt lat="44.04875" lon="3.75683">
        <ele>786.26265812189</ele>
        <time>2017-04-07T15:59:56Z</time>
      </trkpt>
      <trkpt lat="44.04874" lon="3.75692">
        <ele>784.92791031295</ele>
        <time>2017-04-07T16:00:01Z</time>
      </trkpt>
      <trkpt lat="44.04873" lon="3.757">
        <ele>784.92791031295</ele>
        <time>2017-04-07T16:00:06Z</time>
      </trkpt>
      <trkpt lat="44.04873" lon="3.75709">
        <ele>783.64700085815</ele>
        <time>2017-04-07T16:00:11Z</time>
      </trkpt>
      <trkpt lat="44.04872" lon="3.75715">
        <ele>783.64700085815</ele>
        <time>2017-04-07T16:00:16Z</time>
      </trkpt>
      <trkpt lat="44.0487" lon="3.75722">
        <ele>782.45542720858</ele>
        <time>2017-04-07T16:00:21Z</time>
      </trkpt>
      <trkpt lat="44.04868" lon="3.75728">
        <ele>782.45542720858</ele>
        <time>2017-04-07T16:00:26Z</time>
      </trkpt>
      <trkpt lat="44.04864" lon="3.75739">
        <ele>781.37151501609</ele>
        <time>2017-04-07T16:00:31Z</time>
      </trkpt>
      <trkpt lat="44.0486" lon="3.75749">
        <ele>781.37151501609</ele>
        <time>2017-04-07T16:00:36Z</time>
      </trkpt>
      <trkpt lat="44.04857" lon="3.75759">
        <ele>780.5561553302</ele>
        <time>2017-04-07T16:00:41Z</time>
      </trkpt>
      <trkpt lat="44.04858" lon="3.75765">
        <ele>780.5561553302</ele>
        <time>2017-04-07T16:00:46Z</time>
      </trkpt>
      <trkpt lat="44.0486" lon="3.75772">
        <ele>779.97043023949</ele>
        <time>2017-04-07T16:00:54Z</time>
      </trkpt>
      <trkpt lat="44.04867" lon="3.7581">
        <ele>779.4912837951</ele>
        <time>2017-04-07T16:01:11Z</time>
      </trkpt>
      <trkpt lat="44.04867" lon="3.75821">
        <ele>779.4912837951</ele>
        <time>2017-04-07T16:01:16Z</time>
      </trkpt>
      <trkpt lat="44.04867" lon="3.75832">
        <ele>779.50891116645</ele>
        <time>2017-04-07T16:01:21Z</time>
      </trkpt>
      <trkpt lat="44.04869" lon="3.75841">
        <ele>779.50891116645</ele>
        <time>2017-04-07T16:01:26Z</time>
      </trkpt>
      <trkpt lat="44.0487" lon="3.7585">
        <ele>779.72066900007</ele>
        <time>2017-04-07T16:01:31Z</time>
      </trkpt>
      <trkpt lat="44.04873" lon="3.7586">
        <ele>779.72066900007</ele>
        <time>2017-04-07T16:01:36Z</time>
      </trkpt>
      <trkpt lat="44.04876" lon="3.75869">
        <ele>779.93220730703</ele>
        <time>2017-04-07T16:01:41Z</time>
      </trkpt>
      <trkpt lat="44.0488" lon="3.75875">
        <ele>779.93220730703</ele>
        <time>2017-04-07T16:01:46Z</time>
      </trkpt>
      <trkpt lat="44.04885" lon="3.75882">
        <ele>780.42475873679</ele>
        <time>2017-04-07T16:01:51Z</time>
      </trkpt>
      <trkpt lat="44.04888" lon="3.75885">
        <ele>780.42475873679</ele>
        <time>2017-04-07T16:01:56Z</time>
      </trkpt>
      <trkpt lat="44.04894" lon="3.75886">
        <ele>780.9827015541</ele>
        <time>2017-04-07T16:02:01Z</time>
      </trkpt>
      <trkpt lat="44.04904" lon="3.75885">
        <ele>781.62240705751</ele>
        <time>2017-04-07T16:02:09Z</time>
      </trkpt>
      <trkpt lat="44.04946" lon="3.75893">
        <ele>782.12841654125</ele>
        <time>2017-04-07T16:03:00Z</time>
      </trkpt>
      <trkpt lat="44.04982" lon="3.75916">
        <ele>782.21519505647</ele>
        <time>2017-04-07T16:03:22Z</time>
      </trkpt>
      <trkpt lat="44.04989" lon="3.7592">
        <ele>782.21519505647</ele>
        <time>2017-04-07T16:03:26Z</time>
      </trkpt>
      <trkpt lat="44.05004" lon="3.75939">
        <ele>781.80689683988</ele>
        <time>2017-04-07T16:03:50Z</time>
      </trkpt>
      <trkpt lat="44.0503" lon="3.75967">
        <ele>780.97894312015</ele>
        <time>2017-04-07T16:04:16Z</time>
      </trkpt>
      <trkpt lat="44.0505" lon="3.75985">
        <ele>780.11963058596</ele>
        <time>2017-04-07T16:04:31Z</time>
      </trkpt>
      <trkpt lat="44.05056" lon="3.75993">
        <ele>779.21432045943</ele>
        <time>2017-04-07T16:04:32Z</time>
      </trkpt>
      <trkpt lat="44.05058" lon="3.75994">
        <ele>779.21432045943</ele>
        <time>2017-04-07T16:04:49Z</time>
      </trkpt>
      <trkpt lat="44.0495" lon="3.75944">
        <ele>776.00162352086</ele>
        <time>2017-04-07T16:07:05Z</time>
      </trkpt>
      <trkpt lat="44.04921" lon="3.75945">
        <ele>772.97564469561</ele>
        <time>2017-04-07T16:07:05Z</time>
      </trkpt>
      <trkpt lat="44.0489" lon="3.75956">
        <ele>769.88171893591</ele>
        <time>2017-04-07T16:07:26Z</time>
      </trkpt>
      <trkpt lat="44.04883" lon="3.75959">
        <ele>769.88171893591</ele>
        <time>2017-04-07T16:07:31Z</time>
      </trkpt>
      <trkpt lat="44.04778" lon="3.75993">
        <ele>766.06628256638</ele>
        <time>2017-04-07T16:08:54Z</time>
      </trkpt>
      <trkpt lat="44.04744" lon="3.75907">
        <ele>761.37265004479</ele>
        <time>2017-04-07T16:09:51Z</time>
      </trkpt>
      <trkpt lat="44.04743" lon="3.75898">
        <ele>761.37265004479</ele>
        <time>2017-04-07T16:09:56Z</time>
      </trkpt>
      <trkpt lat="44.04744" lon="3.75889">
        <ele>756.76783729964</ele>
        <time>2017-04-07T16:10:01Z</time>
      </trkpt>
      <trkpt lat="44.04746" lon="3.7588">
        <ele>756.76783729964</ele>
        <time>2017-04-07T16:10:06Z</time>
      </trkpt>
      <trkpt lat="44.04747" lon="3.7587">
        <ele>752.22530661291</ele>
        <time>2017-04-07T16:10:11Z</time>
      </trkpt>
      <trkpt lat="44.04748" lon="3.7586">
        <ele>752.22530661291</ele>
        <time>2017-04-07T16:10:16Z</time>
      </trkpt>
      <trkpt lat="44.04751" lon="3.7585">
        <ele>747.76354300803</ele>
        <time>2017-04-07T16:10:21Z</time>
      </trkpt>
      <trkpt lat="44.04757" lon="3.75833">
        <ele>743.29855650497</ele>
        <time>2017-04-07T16:10:30Z</time>
      </trkpt>
      <trkpt lat="44.04758" lon="3.75822">
        <ele>743.29855650497</ele>
        <time>2017-04-07T16:10:36Z</time>
      </trkpt>
      <trkpt lat="44.04759" lon="3.75815">
        <ele>738.85337631242</ele>
        <time>2017-04-07T16:10:41Z</time>
      </trkpt>
      <trkpt lat="44.04743" lon="3.75798">
        <ele>734.27629067161</ele>
        <time>2017-04-07T16:10:56Z</time>
      </trkpt>
      <trkpt lat="44.04729" lon="3.75779">
        <ele>729.36937629735</ele>
        <time>2017-04-07T16:11:18Z</time>
      </trkpt>
      <trkpt lat="44.04723" lon="3.75773">
        <ele>729.36937629735</ele>
        <time>2017-04-07T16:11:18Z</time>
      </trkpt>
      <trkpt lat="44.04713" lon="3.75757">
        <ele>724.19506101528</ele>
        <time>2017-04-07T16:11:32Z</time>
      </trkpt>
      <trkpt lat="44.04709" lon="3.7575">
        <ele>724.19506101528</ele>
        <time>2017-04-07T16:11:32Z</time>
      </trkpt>
      <trkpt lat="44.04693" lon="3.7572">
        <ele>719.21532591465</ele>
        <time>2017-04-07T16:11:59Z</time>
      </trkpt>
      <trkpt lat="44.04705" lon="3.75603">
        <ele>713.90639385834</ele>
        <time>2017-04-07T16:13:12Z</time>
      </trkpt>
      <trkpt lat="44.04712" lon="3.7549">
        <ele>707.56755852701</ele>
        <time>2017-04-07T16:14:13Z</time>
      </trkpt>
      <trkpt lat="44.0471" lon="3.75489">
        <ele>707.56755852701</ele>
        <time>2017-04-07T16:14:16Z</time>
      </trkpt>
      <trkpt lat="44.04705" lon="3.75486">
        <ele>707.56755852701</ele>
        <time>2017-04-07T16:14:21Z</time>
      </trkpt>
      <trkpt lat="44.04691" lon="3.75462">
        <ele>701.77160642252</ele>
        <time>2017-04-07T16:14:48Z</time>
      </trkpt>
      <trkpt lat="44.04686" lon="3.75457">
        <ele>701.77160642252</ele>
        <time>2017-04-07T16:14:49Z</time>
      </trkpt>
      <trkpt lat="44.04656" lon="3.75444">
        <ele>696.38884195749</ele>
        <time>2017-04-07T16:15:17Z</time>
      </trkpt>
      <trkpt lat="44.0462" lon="3.75439">
        <ele>691.45624317331</ele>
        <time>2017-04-07T16:15:40Z</time>
      </trkpt>
      <trkpt lat="44.04597" lon="3.75424">
        <ele>687.03540159096</ele>
        <time>2017-04-07T16:15:58Z</time>
      </trkpt>
      <trkpt lat="44.0444" lon="3.75376">
        <ele>684.68047103961</ele>
        <time>2017-04-07T16:17:56Z</time>
      </trkpt>
      <trkpt lat="44.04437" lon="3.75371">
        <ele>684.68047103961</ele>
        <time>2017-04-07T16:18:00Z</time>
      </trkpt>
      <trkpt lat="44.04425" lon="3.75308">
        <ele>681.99205342078</ele>
        <time>2017-04-07T16:18:46Z</time>
      </trkpt>
      <trkpt lat="44.04421" lon="3.7531">
        <ele>681.99205342078</ele>
        <time>2017-04-07T16:18:51Z</time>
      </trkpt>
      <trkpt lat="44.0442" lon="3.75311">
        <ele>681.99205342078</ele>
        <time>2017-04-07T16:18:56Z</time>
      </trkpt>
      <trkpt lat="44.04425" lon="3.75307">
        <ele>678.82291987413</ele>
        <time>2017-04-07T16:20:41Z</time>
      </trkpt>
      <trkpt lat="44.04431" lon="3.75301">
        <ele>678.82291987413</ele>
        <time>2017-04-07T16:20:46Z</time>
      </trkpt>
      <trkpt lat="44.04437" lon="3.75296">
        <ele>676.03215804978</ele>
        <time>2017-04-07T16:20:51Z</time>
      </trkpt>
      <trkpt lat="44.04444" lon="3.75292">
        <ele>676.03215804978</ele>
        <time>2017-04-07T16:20:56Z</time>
      </trkpt>
      <trkpt lat="44.04451" lon="3.75289">
        <ele>673.50658425505</ele>
        <time>2017-04-07T16:21:01Z</time>
      </trkpt>
      <trkpt lat="44.04457" lon="3.75285">
        <ele>673.50658425505</ele>
        <time>2017-04-07T16:21:06Z</time>
      </trkpt>
      <trkpt lat="44.04461" lon="3.75283">
        <ele>671.29891893706</ele>
        <time>2017-04-07T16:21:16Z</time>
      </trkpt>
      <trkpt lat="44.04481" lon="3.75265">
        <ele>669.1110760368</ele>
        <time>2017-04-07T16:21:32Z</time>
      </trkpt>
      <trkpt lat="44.04522" lon="3.75211">
        <ele>666.94046206737</ele>
        <time>2017-04-07T16:22:06Z</time>
      </trkpt>
      <trkpt lat="44.04556" lon="3.751">
        <ele>666.42735085986</ele>
        <time>2017-04-07T16:23:46Z</time>
      </trkpt>
      <trkpt lat="44.04555" lon="3.75096">
        <ele>666.42735085986</ele>
        <time>2017-04-07T16:23:51Z</time>
      </trkpt>
      <trkpt lat="44.04535" lon="3.75087">
        <ele>666.23335008339</ele>
        <time>2017-04-07T16:24:17Z</time>
      </trkpt>
      <trkpt lat="44.04467" lon="3.75078">
        <ele>666.65938169637</ele>
        <time>2017-04-07T16:25:10Z</time>
      </trkpt>
      <trkpt lat="44.04459" lon="3.75058">
        <ele>667.21866376101</ele>
        <time>2017-04-07T16:25:16Z</time>
      </trkpt>
      <trkpt lat="44.04423" lon="3.75024">
        <ele>667.8200376047</ele>
        <time>2017-04-07T16:25:47Z</time>
      </trkpt>
      <trkpt lat="44.04422" lon="3.75022">
        <ele>667.8200376047</ele>
        <time>2017-04-07T16:25:47Z</time>
      </trkpt>
      <trkpt lat="44.04332" lon="3.74975">
        <ele>667.88893453116</ele>
        <time>2017-04-07T16:27:00Z</time>
      </trkpt>
      <trkpt lat="44.04297" lon="3.74952">
        <ele>666.98096904934</ele>
        <time>2017-04-07T16:27:30Z</time>
      </trkpt>
      <trkpt lat="44.04267" lon="3.74916">
        <ele>665.50860985599</ele>
        <time>2017-04-07T16:27:56Z</time>
      </trkpt>
      <trkpt lat="44.0426" lon="3.74914">
        <ele>665.50860985599</ele>
        <time>2017-04-07T16:28:01Z</time>
      </trkpt>
      <trkpt lat="44.04245" lon="3.74905">
        <ele>664.25917187266</ele>
        <time>2017-04-07T16:28:14Z</time>
      </trkpt>
      <trkpt lat="44.04243" lon="3.74904">
        <ele>664.25917187266</ele>
        <time>2017-04-07T16:28:14Z</time>
      </trkpt>
      <trkpt lat="44.04226" lon="3.74892">
        <ele>662.95279273046</ele>
        <time>2017-04-07T16:28:26Z</time>
      </trkpt>
      <trkpt lat="44.04222" lon="3.74888">
        <ele>662.95279273046</ele>
        <time>2017-04-07T16:28:31Z</time>
      </trkpt>
      <trkpt lat="44.04201" lon="3.74872">
        <ele>661.90684285628</ele>
        <time>2017-04-07T16:28:49Z</time>
      </trkpt>
      <trkpt lat="44.0418" lon="3.74874">
        <ele>660.92474729839</ele>
        <time>2017-04-07T16:29:13Z</time>
      </trkpt>
      <trkpt lat="44.0415" lon="3.7487">
        <ele>660.09808793371</ele>
        <time>2017-04-07T16:29:28Z</time>
      </trkpt>
      <trkpt lat="44.04132" lon="3.74861">
        <ele>659.13668564562</ele>
        <time>2017-04-07T16:29:57Z</time>
      </trkpt>
      <trkpt lat="44.04112" lon="3.74872">
        <ele>658.40624383555</ele>
        <time>2017-04-07T16:30:11Z</time>
      </trkpt>
      <trkpt lat="44.04107" lon="3.74875">
        <ele>658.40624383555</ele>
        <time>2017-04-07T16:30:11Z</time>
      </trkpt>
      <trkpt lat="44.04091" lon="3.74884">
        <ele>657.8415485997</ele>
        <time>2017-04-07T16:30:28Z</time>
      </trkpt>
      <trkpt lat="44.04065" lon="3.74909">
        <ele>657.19448020507</ele>
        <time>2017-04-07T16:30:44Z</time>
      </trkpt>
      <trkpt lat="44.04061" lon="3.74912">
        <ele>657.19448020507</ele>
        <time>2017-04-07T16:30:48Z</time>
      </trkpt>
      <trkpt lat="44.04048" lon="3.7492">
        <ele>656.75429686214</ele>
        <time>2017-04-07T16:31:00Z</time>
      </trkpt>
      <trkpt lat="44.03979" lon="3.74934">
        <ele>656.8606108563</ele>
        <time>2017-04-07T16:31:55Z</time>
      </trkpt>
      <trkpt lat="44.03945" lon="3.74927">
        <ele>657.04848903252</ele>
        <time>2017-04-07T16:32:12Z</time>
      </trkpt>
      <trkpt lat="44.03934" lon="3.74925">
        <ele>657.27616759266</ele>
        <time>2017-04-07T16:32:25Z</time>
      </trkpt>
      <trkpt lat="44.03928" lon="3.74921">
        <ele>657.27616759266</ele>
        <time>2017-04-07T16:32:28Z</time>
      </trkpt>
      <trkpt lat="44.03912" lon="3.74916">
        <ele>657.30323648648</ele>
        <time>2017-04-07T16:32:37Z</time>
      </trkpt>
      <trkpt lat="44.03907" lon="3.74915">
        <ele>657.30323648648</ele>
        <time>2017-04-07T16:32:45Z</time>
      </trkpt>
      <trkpt lat="44.03875" lon="3.74865">
        <ele>655.79801162702</ele>
        <time>2017-04-07T16:33:23Z</time>
      </trkpt>
      <trkpt lat="44.03876" lon="3.74861">
        <ele>655.79801162702</ele>
        <time>2017-04-07T16:33:33Z</time>
      </trkpt>
      <trkpt lat="44.0388" lon="3.74852">
        <ele>654.34126133238</ele>
        <time>2017-04-07T16:33:33Z</time>
      </trkpt>
      <trkpt lat="44.0389" lon="3.74843">
        <ele>652.84125481933</ele>
        <time>2017-04-07T16:33:54Z</time>
      </trkpt>
      <trkpt lat="44.0389" lon="3.74841">
        <ele>652.84125481933</ele>
        <time>2017-04-07T16:33:56Z</time>
      </trkpt>
      <trkpt lat="44.03873" lon="3.74814">
        <ele>650.50712952313</ele>
        <time>2017-04-07T16:35:34Z</time>
      </trkpt>
      <trkpt lat="44.03873" lon="3.74801">
        <ele>648.32352552818</ele>
        <time>2017-04-07T16:35:59Z</time>
      </trkpt>
      <trkpt lat="44.03889" lon="3.74789">
        <ele>646.17927306843</ele>
        <time>2017-04-07T16:36:22Z</time>
      </trkpt>
      <trkpt lat="44.0389" lon="3.74774">
        <ele>644.01461284521</ele>
        <time>2017-04-07T16:36:41Z</time>
      </trkpt>
      <trkpt lat="44.0389" lon="3.74751">
        <ele>641.83198619507</ele>
        <time>2017-04-07T16:37:03Z</time>
      </trkpt>
      <trkpt lat="44.03888" lon="3.74746">
        <ele>641.83198619507</ele>
        <time>2017-04-07T16:37:03Z</time>
      </trkpt>
      <trkpt lat="44.03887" lon="3.74696">
        <ele>638.95647965905</ele>
        <time>2017-04-07T16:38:01Z</time>
      </trkpt>
      <trkpt lat="44.03886" lon="3.74657">
        <ele>635.42769640129</ele>
        <time>2017-04-07T16:38:41Z</time>
      </trkpt>
      <trkpt lat="44.03884" lon="3.74652">
        <ele>635.42769640129</ele>
        <time>2017-04-07T16:38:46Z</time>
      </trkpt>
      <trkpt lat="44.03882" lon="3.74648">
        <ele>635.42769640129</ele>
        <time>2017-04-07T16:38:51Z</time>
      </trkpt>
      <trkpt lat="44.0388" lon="3.74643">
        <ele>631.97596410017</ele>
        <time>2017-04-07T16:38:56Z</time>
      </trkpt>
      <trkpt lat="44.03881" lon="3.74637">
        <ele>631.97596410017</ele>
        <time>2017-04-07T16:39:01Z</time>
      </trkpt>
      <trkpt lat="44.03883" lon="3.74634">
        <ele>631.97596410017</ele>
        <time>2017-04-07T16:39:06Z</time>
      </trkpt>
      <trkpt lat="44.03883" lon="3.74629">
        <ele>628.60047303933</ele>
        <time>2017-04-07T16:39:11Z</time>
      </trkpt>
      <trkpt lat="44.03882" lon="3.74624">
        <ele>628.60047303933</ele>
        <time>2017-04-07T16:39:16Z</time>
      </trkpt>
      <trkpt lat="44.03868" lon="3.74595">
        <ele>624.89678026925</ele>
        <time>2017-04-07T16:39:54Z</time>
      </trkpt>
      <trkpt lat="44.03863" lon="3.74588">
        <ele>624.89678026925</ele>
        <time>2017-04-07T16:39:54Z</time>
      </trkpt>
      <trkpt lat="44.03866" lon="3.74532">
        <ele>620.54873148836</ele>
        <time>2017-04-07T16:40:45Z</time>
      </trkpt>
      <trkpt lat="44.03868" lon="3.74483">
        <ele>615.66870923056</ele>
        <time>2017-04-07T16:41:32Z</time>
      </trkpt>
      <trkpt lat="44.03867" lon="3.74473">
        <ele>615.66870923056</ele>
        <time>2017-04-07T16:41:32Z</time>
      </trkpt>
      <trkpt lat="44.03864" lon="3.74438">
        <ele>610.26142659576</ele>
        <time>2017-04-07T16:42:12Z</time>
      </trkpt>
      <trkpt lat="44.03864" lon="3.74418">
        <ele>604.99558915407</ele>
        <time>2017-04-07T16:42:28Z</time>
      </trkpt>
      <trkpt lat="44.03865" lon="3.74409">
        <ele>604.99558915407</ele>
        <time>2017-04-07T16:42:28Z</time>
      </trkpt>
      <trkpt lat="44.03862" lon="3.74402">
        <ele>599.89945139892</ele>
        <time>2017-04-07T16:42:37Z</time>
      </trkpt>
      <trkpt lat="44.03856" lon="3.7438">
        <ele>594.79686160076</ele>
        <time>2017-04-07T16:43:00Z</time>
      </trkpt>
      <trkpt lat="44.03852" lon="3.7434">
        <ele>589.49568336118</ele>
        <time>2017-04-07T16:43:31Z</time>
      </trkpt>
      <trkpt lat="44.03858" lon="3.74324">
        <ele>584.17858965406</ele>
        <time>2017-04-07T16:43:56Z</time>
      </trkpt>
      <trkpt lat="44.03842" lon="3.74299">
        <ele>578.35180928245</ele>
        <time>2017-04-07T16:44:51Z</time>
      </trkpt>
      <trkpt lat="44.0384" lon="3.74288">
        <ele>578.35180928245</ele>
        <time>2017-04-07T16:44:51Z</time>
      </trkpt>
      <trkpt lat="44.03847" lon="3.74267">
        <ele>572.43817481259</ele>
        <time>2017-04-07T16:45:16Z</time>
      </trkpt>
      <trkpt lat="44.03852" lon="3.74262">
        <ele>572.43817481259</ele>
        <time>2017-04-07T16:45:16Z</time>
      </trkpt>
      <trkpt lat="44.03866" lon="3.74252">
        <ele>566.41158505536</ele>
        <time>2017-04-07T16:45:52Z</time>
      </trkpt>
      <trkpt lat="44.03867" lon="3.74253">
        <ele>566.41158505536</ele>
        <time>2017-04-07T16:45:52Z</time>
      </trkpt>
      <trkpt lat="44.03875" lon="3.7423">
        <ele>560.29119515823</ele>
        <time>2017-04-07T16:46:41Z</time>
      </trkpt>
      <trkpt lat="44.03872" lon="3.74227">
        <ele>560.29119515823</ele>
        <time>2017-04-07T16:46:41Z</time>
      </trkpt>
      <trkpt lat="44.03882" lon="3.74209">
        <ele>554.25331090266</ele>
        <time>2017-04-07T16:47:03Z</time>
      </trkpt>
      <trkpt lat="44.03882" lon="3.74209">
        <ele>554.25331090266</ele>
        <time>2017-04-07T16:47:06Z</time>
      </trkpt>
      <trkpt lat="44.03887" lon="3.74204">
        <ele>554.25331090266</ele>
        <time>2017-04-07T16:47:46Z</time>
      </trkpt>
      <trkpt lat="44.03889" lon="3.74201">
        <ele>547.9708343643</ele>
        <time>2017-04-07T16:47:51Z</time>
      </trkpt>
      <trkpt lat="44.03891" lon="3.74196">
        <ele>547.9708343643</ele>
        <time>2017-04-07T16:47:56Z</time>
      </trkpt>
      <trkpt lat="44.0389" lon="3.74192">
        <ele>547.9708343643</ele>
        <time>2017-04-07T16:48:01Z</time>
      </trkpt>
      <trkpt lat="44.0389" lon="3.74185">
        <ele>541.96255944762</ele>
        <time>2017-04-07T16:48:06Z</time>
      </trkpt>
      <trkpt lat="44.03893" lon="3.74166">
        <ele>536.14609920886</ele>
        <time>2017-04-07T16:48:24Z</time>
      </trkpt>
      <trkpt lat="44.03892" lon="3.74165">
        <ele>536.14609920886</ele>
        <time>2017-04-07T16:48:29Z</time>
      </trkpt>
      <trkpt lat="44.03889" lon="3.74157">
        <ele>536.14609920886</ele>
        <time>2017-04-07T16:48:33Z</time>
      </trkpt>
      <trkpt lat="44.03884" lon="3.7414">
        <ele>530.21372558171</ele>
        <time>2017-04-07T16:48:56Z</time>
      </trkpt>
      <trkpt lat="44.03882" lon="3.74138">
        <ele>530.21372558171</ele>
        <time>2017-04-07T16:49:01Z</time>
      </trkpt>
      <trkpt lat="44.03881" lon="3.74127">
        <ele>524.84590228123</ele>
        <time>2017-04-07T16:49:49Z</time>
      </trkpt>
      <trkpt lat="44.03881" lon="3.74124">
        <ele>524.84590228123</ele>
        <time>2017-04-07T16:49:51Z</time>
      </trkpt>
      <trkpt lat="44.03882" lon="3.74122">
        <ele>524.84590228123</ele>
        <time>2017-04-07T16:49:56Z</time>
      </trkpt>
      <trkpt lat="44.03883" lon="3.74123">
        <ele>524.84590228123</ele>
        <time>2017-04-07T16:50:11Z</time>
      </trkpt>
      <trkpt lat="44.03884" lon="3.74122">
        <ele>524.84590228123</ele>
        <time>2017-04-07T16:52:06Z</time>
      </trkpt>
      <trkpt lat="44.03888" lon="3.7412">
        <ele>518.98513374749</ele>
        <time>2017-04-07T16:52:11Z</time>
      </trkpt>
      <trkpt lat="44.03889" lon="3.74116">
        <ele>518.98513374749</ele>
        <time>2017-04-07T16:52:16Z</time>
      </trkpt>
      <trkpt lat="44.03892" lon="3.74096">
        <ele>513.43967791785</ele>
        <time>2017-04-07T16:52:51Z</time>
      </trkpt>
      <trkpt lat="44.03901" lon="3.74083">
        <ele>508.48167642215</ele>
        <time>2017-04-07T16:52:52Z</time>
      </trkpt>
      <trkpt lat="44.03918" lon="3.74071">
        <ele>503.97224357624</ele>
        <time>2017-04-07T16:53:11Z</time>
      </trkpt>
      <trkpt lat="44.0392" lon="3.74072">
        <ele>503.97224357624</ele>
        <time>2017-04-07T16:53:11Z</time>
      </trkpt>
      <trkpt lat="44.03926" lon="3.74066">
        <ele>499.75233360005</ele>
        <time>2017-04-07T16:53:24Z</time>
      </trkpt>
      <trkpt lat="44.03927" lon="3.74064">
        <ele>499.75233360005</ele>
        <time>2017-04-07T16:53:26Z</time>
      </trkpt>
      <trkpt lat="44.03931" lon="3.74052">
        <ele>495.74555510233</ele>
        <time>2017-04-07T16:53:42Z</time>
      </trkpt>
      <trkpt lat="44.03924" lon="3.7404">
        <ele>491.85144823661</ele>
        <time>2017-04-07T16:54:04Z</time>
      </trkpt>
      <trkpt lat="44.03926" lon="3.74038">
        <ele>491.85144823661</ele>
        <time>2017-04-07T16:54:06Z</time>
      </trkpt>
      <trkpt lat="44.03926" lon="3.74011">
        <ele>488.00519315614</ele>
        <time>2017-04-07T16:54:24Z</time>
      </trkpt>
      <trkpt lat="44.03925" lon="3.7401">
        <ele>488.00519315614</ele>
        <time>2017-04-07T16:54:25Z</time>
      </trkpt>
      <trkpt lat="44.03919" lon="3.73943">
        <ele>483.29610903958</ele>
        <time>2017-04-07T16:55:29Z</time>
      </trkpt>
      <trkpt lat="44.03923" lon="3.73938">
        <ele>483.29610903958</ele>
        <time>2017-04-07T16:55:31Z</time>
      </trkpt>
      <trkpt lat="44.03926" lon="3.7391">
        <ele>478.07873548308</ele>
        <time>2017-04-07T16:56:01Z</time>
      </trkpt>
      <trkpt lat="44.03932" lon="3.73859">
        <ele>471.84693557314</ele>
        <time>2017-04-07T16:57:32Z</time>
      </trkpt>
      <trkpt lat="44.03911" lon="3.73843">
        <ele>465.9357789175</ele>
        <time>2017-04-07T16:57:52Z</time>
      </trkpt>
      <trkpt lat="44.039" lon="3.73843">
        <ele>460.67325414389</ele>
        <time>2017-04-07T16:57:53Z</time>
      </trkpt>
      <trkpt lat="44.03885" lon="3.73842">
        <ele>455.91448594313</ele>
        <time>2017-04-07T16:58:10Z</time>
      </trkpt>
      <trkpt lat="44.03827" lon="3.73848">
        <ele>450.67336928166</ele>
        <time>2017-04-07T16:59:04Z</time>
      </trkpt>
      <trkpt lat="44.03816" lon="3.73838">
        <ele>445.92525025532</ele>
        <time>2017-04-07T16:59:25Z</time>
      </trkpt>
      <trkpt lat="44.03808" lon="3.7383">
        <ele>441.69317722551</ele>
        <time>2017-04-07T16:59:25Z</time>
      </trkpt>
      <trkpt lat="44.03769" lon="3.73801">
        <ele>436.78634458542</ele>
        <time>2017-04-07T16:59:59Z</time>
      </trkpt>
      <trkpt lat="44.03766" lon="3.73802">
        <ele>436.78634458542</ele>
        <time>2017-04-07T17:00:01Z</time>
      </trkpt>
      <trkpt lat="44.03761" lon="3.73804">
        <ele>436.78634458542</ele>
        <time>2017-04-07T17:00:06Z</time>
      </trkpt>
      <trkpt lat="44.03728" lon="3.73799">
        <ele>431.12633331639</ele>
        <time>2017-04-07T17:00:48Z</time>
      </trkpt>
      <trkpt lat="44.03723" lon="3.73799">
        <ele>431.12633331639</ele>
        <time>2017-04-07T17:00:50Z</time>
      </trkpt>
      <trkpt lat="44.03712" lon="3.738">
        <ele>425.44945606293</ele>
        <time>2017-04-07T17:01:05Z</time>
      </trkpt>
      <trkpt lat="44.03706" lon="3.73799">
        <ele>425.44945606293</ele>
        <time>2017-04-07T17:01:07Z</time>
      </trkpt>
      <trkpt lat="44.03693" lon="3.73799">
        <ele>419.84696850466</ele>
        <time>2017-04-07T17:01:22Z</time>
      </trkpt>
      <trkpt lat="44.0369" lon="3.738">
        <ele>419.84696850466</ele>
        <time>2017-04-07T17:01:22Z</time>
      </trkpt>
      <trkpt lat="44.03675" lon="3.73793">
        <ele>414.27335736649</ele>
        <time>2017-04-07T17:01:46Z</time>
      </trkpt>
      <trkpt lat="44.03675" lon="3.73787">
        <ele>414.27335736649</ele>
        <time>2017-04-07T17:01:46Z</time>
      </trkpt>
      <trkpt lat="44.03672" lon="3.73763">
        <ele>408.77268410911</ele>
        <time>2017-04-07T17:02:03Z</time>
      </trkpt>
      <trkpt lat="44.03652" lon="3.73754">
        <ele>403.27012844994</ele>
        <time>2017-04-07T17:02:23Z</time>
      </trkpt>
      <trkpt lat="44.03611" lon="3.7372">
        <ele>396.91802180891</ele>
        <time>2017-04-07T17:03:11Z</time>
      </trkpt>
      <trkpt lat="44.03592" lon="3.73677">
        <ele>390.84987883955</ele>
        <time>2017-04-07T17:03:51Z</time>
      </trkpt>
      <trkpt lat="44.03578" lon="3.73676">
        <ele>385.88442738217</ele>
        <time>2017-04-07T17:04:14Z</time>
      </trkpt>
      <trkpt lat="44.03575" lon="3.73675">
        <ele>385.88442738217</ele>
        <time>2017-04-07T17:04:16Z</time>
      </trkpt>
      <trkpt lat="44.03566" lon="3.73675">
        <ele>382.17175222122</ele>
        <time>2017-04-07T17:04:32Z</time>
      </trkpt>
      <trkpt lat="44.03552" lon="3.73673">
        <ele>380.04902634834</ele>
        <time>2017-04-07T17:04:49Z</time>
      </trkpt>
      <trkpt lat="44.03547" lon="3.73673">
        <ele>380.04902634834</ele>
        <time>2017-04-07T17:04:49Z</time>
      </trkpt>
      <trkpt lat="44.03533" lon="3.73673">
        <ele>378.91618587264</ele>
        <time>2017-04-07T17:05:14Z</time>
      </trkpt>
      <trkpt lat="44.03522" lon="3.73674">
        <ele>379.30963765098</ele>
        <time>2017-04-07T17:05:16Z</time>
      </trkpt>
      <trkpt lat="44.03519" lon="3.73673">
        <ele>379.30963765098</ele>
        <time>2017-04-07T17:05:21Z</time>
      </trkpt>
      <trkpt lat="44.03515" lon="3.73672">
        <ele>379.30963765098</ele>
        <time>2017-04-07T17:05:26Z</time>
      </trkpt>
      <trkpt lat="44.03513" lon="3.73671">
        <ele>380.3385961534</ele>
        <time>2017-04-07T17:05:35Z</time>
      </trkpt>
      <trkpt lat="44.03499" lon="3.73665">
        <ele>382.35764709348</ele>
        <time>2017-04-07T17:05:50Z</time>
      </trkpt>
      <trkpt lat="44.03498" lon="3.73665">
        <ele>382.35764709348</ele>
        <time>2017-04-07T17:05:51Z</time>
      </trkpt>
      <trkpt lat="44.03489" lon="3.73658">
        <ele>385.05851775104</ele>
        <time>2017-04-07T17:06:12Z</time>
      </trkpt>
      <trkpt lat="44.03483" lon="3.73656">
        <ele>385.05851775104</ele>
        <time>2017-04-07T17:06:14Z</time>
      </trkpt>
      <trkpt lat="44.03466" lon="3.73646">
        <ele>388.8455118686</ele>
        <time>2017-04-07T17:06:39Z</time>
      </trkpt>
      <trkpt lat="44.03461" lon="3.73634">
        <ele>393.06716329663</ele>
        <time>2017-04-07T17:07:03Z</time>
      </trkpt>
      <trkpt lat="44.03468" lon="3.7361">
        <ele>397.39267736492</ele>
        <time>2017-04-07T17:07:36Z</time>
      </trkpt>
      <trkpt lat="44.03464" lon="3.73607">
        <ele>397.39267736492</ele>
        <time>2017-04-07T17:07:43Z</time>
      </trkpt>
      <trkpt lat="44.03445" lon="3.73572">
        <ele>402.13522622435</ele>
        <time>2017-04-07T17:10:16Z</time>
      </trkpt>
      <trkpt lat="44.03427" lon="3.7354">
        <ele>406.71947442406</ele>
        <time>2017-04-07T17:10:42Z</time>
      </trkpt>
      <trkpt lat="44.03414" lon="3.73545">
        <ele>411.11756872788</ele>
        <time>2017-04-07T17:10:43Z</time>
      </trkpt>
      <trkpt lat="44.03375" lon="3.73527">
        <ele>415.24701039572</ele>
        <time>2017-04-07T17:11:16Z</time>
      </trkpt>
      <trkpt lat="44.03369" lon="3.73525">
        <ele>415.24701039572</ele>
        <time>2017-04-07T17:11:21Z</time>
      </trkpt>
      <trkpt lat="44.03363" lon="3.73522">
        <ele>419.0758182943</ele>
        <time>2017-04-07T17:11:26Z</time>
      </trkpt>
      <trkpt lat="44.03359" lon="3.73521">
        <ele>419.0758182943</ele>
        <time>2017-04-07T17:11:31Z</time>
      </trkpt>
      <trkpt lat="44.03352" lon="3.73516">
        <ele>422.57570734485</ele>
        <time>2017-04-07T17:11:41Z</time>
      </trkpt>
    </trkseg>
  </trk>
</gpx>